<?xml version="1.0" encoding="UTF-8" standalone="no" ?>
<gpx xmlns="http://www.topografix.com/GPX/1/1" xmlns:xsi="http://www.w3.org/2001/XMLSchema-instance" xsi:schemaLocation="http://www.topografix.com/GPX/1/1 http://www.topografix.com/GPX/1/1/gpx.xsd" version="1.1" creator="VisuGPX - https://www.visugpx.com">
  <metadata>
    <name>Virgule</name>
    <desc><![CDATA[
]]></desc>
  </metadata>
  <trk>
    <name><![CDATA[Virgule_1]]></name>
    <extensions>
      <line xmlns="http://www.topografix.com/GPX/gpx_style/0/2">
        <color>0000FF</color>
        <width>4</width>
      </line>
    </extensions>
    <trkseg>
      <trkpt lat="45.35591" lon="5.91799">
        <ele>1069.4599609375</ele>
        <time>2017-12-23T10:05:37Z</time>
      </trkpt>
      <trkpt lat="45.35587" lon="5.91796">
        <ele>1069.4599609375</ele>
        <time>2017-12-23T10:05:41Z</time>
      </trkpt>
      <trkpt lat="45.35588" lon="5.91788">
        <ele>1073.4599609375</ele>
        <time>2017-12-23T10:05:47Z</time>
      </trkpt>
      <trkpt lat="45.35587" lon="5.91782">
        <ele>1075.4599609375</ele>
        <time>2017-12-23T10:05:52Z</time>
      </trkpt>
      <trkpt lat="45.35588" lon="5.91775">
        <ele>1078.4599609375</ele>
        <time>2017-12-23T10:05:56Z</time>
      </trkpt>
      <trkpt lat="45.35586" lon="5.91768">
        <ele>1081.4599609375</ele>
        <time>2017-12-23T10:06:01Z</time>
      </trkpt>
      <trkpt lat="45.35585" lon="5.91761">
        <ele>1083.4599609375</ele>
        <time>2017-12-23T10:06:07Z</time>
      </trkpt>
      <trkpt lat="45.35582" lon="5.91756">
        <ele>1085.4599609375</ele>
        <time>2017-12-23T10:06:11Z</time>
      </trkpt>
      <trkpt lat="45.3558" lon="5.91749">
        <ele>1085.4599609375</ele>
        <time>2017-12-23T10:06:16Z</time>
      </trkpt>
      <trkpt lat="45.35578" lon="5.91743">
        <ele>1085.4599609375</ele>
        <time>2017-12-23T10:06:20Z</time>
      </trkpt>
      <trkpt lat="45.35579" lon="5.91737">
        <ele>1087.4599609375</ele>
        <time>2017-12-23T10:06:25Z</time>
      </trkpt>
      <trkpt lat="45.35581" lon="5.91731">
        <ele>1087.4599609375</ele>
        <time>2017-12-23T10:06:31Z</time>
      </trkpt>
      <trkpt lat="45.35584" lon="5.91726">
        <ele>1088.4599609375</ele>
        <time>2017-12-23T10:06:35Z</time>
      </trkpt>
      <trkpt lat="45.35586" lon="5.9172">
        <ele>1087.4599609375</ele>
        <time>2017-12-23T10:06:40Z</time>
      </trkpt>
      <trkpt lat="45.35589" lon="5.91714">
        <ele>1086.4599609375</ele>
        <time>2017-12-23T10:06:45Z</time>
      </trkpt>
      <trkpt lat="45.35591" lon="5.91707">
        <ele>1087.4599609375</ele>
        <time>2017-12-23T10:06:50Z</time>
      </trkpt>
      <trkpt lat="45.35594" lon="5.91702">
        <ele>1091.4599609375</ele>
        <time>2017-12-23T10:06:56Z</time>
      </trkpt>
      <trkpt lat="45.35597" lon="5.91696">
        <ele>1091.4599609375</ele>
        <time>2017-12-23T10:07:01Z</time>
      </trkpt>
      <trkpt lat="45.356" lon="5.91691">
        <ele>1095.4599609375</ele>
        <time>2017-12-23T10:07:05Z</time>
      </trkpt>
      <trkpt lat="45.35602" lon="5.91686">
        <ele>1096.4599609375</ele>
        <time>2017-12-23T10:07:10Z</time>
      </trkpt>
      <trkpt lat="45.35605" lon="5.9168">
        <ele>1095.4599609375</ele>
        <time>2017-12-23T10:07:13Z</time>
      </trkpt>
      <trkpt lat="45.35609" lon="5.91675">
        <ele>1096.4599609375</ele>
        <time>2017-12-23T10:07:18Z</time>
      </trkpt>
      <trkpt lat="45.35611" lon="5.91669">
        <ele>1096.4599609375</ele>
        <time>2017-12-23T10:07:23Z</time>
      </trkpt>
      <trkpt lat="45.35613" lon="5.91663">
        <ele>1096.4599609375</ele>
        <time>2017-12-23T10:07:28Z</time>
      </trkpt>
      <trkpt lat="45.35615" lon="5.91657">
        <ele>1097.4599609375</ele>
        <time>2017-12-23T10:07:34Z</time>
      </trkpt>
      <trkpt lat="45.35617" lon="5.9165">
        <ele>1097.4599609375</ele>
        <time>2017-12-23T10:07:38Z</time>
      </trkpt>
      <trkpt lat="45.3562" lon="5.91645">
        <ele>1099.4599609375</ele>
        <time>2017-12-23T10:07:42Z</time>
      </trkpt>
      <trkpt lat="45.35623" lon="5.9164">
        <ele>1100.4599609375</ele>
        <time>2017-12-23T10:07:46Z</time>
      </trkpt>
      <trkpt lat="45.35627" lon="5.91635">
        <ele>1101.4599609375</ele>
        <time>2017-12-23T10:07:50Z</time>
      </trkpt>
      <trkpt lat="45.35631" lon="5.91632">
        <ele>1101.4599609375</ele>
        <time>2017-12-23T10:07:54Z</time>
      </trkpt>
      <trkpt lat="45.35636" lon="5.91628">
        <ele>1103.4599609375</ele>
        <time>2017-12-23T10:07:59Z</time>
      </trkpt>
      <trkpt lat="45.35638" lon="5.91622">
        <ele>1106.4599609375</ele>
        <time>2017-12-23T10:08:05Z</time>
      </trkpt>
      <trkpt lat="45.3564" lon="5.91616">
        <ele>1107.4599609375</ele>
        <time>2017-12-23T10:08:10Z</time>
      </trkpt>
      <trkpt lat="45.35641" lon="5.91609">
        <ele>1107.4599609375</ele>
        <time>2017-12-23T10:08:14Z</time>
      </trkpt>
      <trkpt lat="45.35642" lon="5.91602">
        <ele>1109.4599609375</ele>
        <time>2017-12-23T10:08:19Z</time>
      </trkpt>
      <trkpt lat="45.35642" lon="5.91595">
        <ele>1112.4599609375</ele>
        <time>2017-12-23T10:08:25Z</time>
      </trkpt>
      <trkpt lat="45.3564" lon="5.91589">
        <ele>1115.4599609375</ele>
        <time>2017-12-23T10:08:31Z</time>
      </trkpt>
      <trkpt lat="45.35641" lon="5.91582">
        <ele>1116.4599609375</ele>
        <time>2017-12-23T10:08:38Z</time>
      </trkpt>
      <trkpt lat="45.35646" lon="5.91578">
        <ele>1118.4599609375</ele>
        <time>2017-12-23T10:08:52Z</time>
      </trkpt>
      <trkpt lat="45.35648" lon="5.91571">
        <ele>1118.4599609375</ele>
        <time>2017-12-23T10:08:56Z</time>
      </trkpt>
      <trkpt lat="45.35651" lon="5.91564">
        <ele>1119.4599609375</ele>
        <time>2017-12-23T10:09:00Z</time>
      </trkpt>
      <trkpt lat="45.35654" lon="5.91558">
        <ele>1121.4599609375</ele>
        <time>2017-12-23T10:09:04Z</time>
      </trkpt>
      <trkpt lat="45.35657" lon="5.91551">
        <ele>1122.4599609375</ele>
        <time>2017-12-23T10:09:09Z</time>
      </trkpt>
      <trkpt lat="45.35661" lon="5.91545">
        <ele>1123.4599609375</ele>
        <time>2017-12-23T10:09:14Z</time>
      </trkpt>
      <trkpt lat="45.35664" lon="5.9154">
        <ele>1124.4599609375</ele>
        <time>2017-12-23T10:09:17Z</time>
      </trkpt>
      <trkpt lat="45.35668" lon="5.91534">
        <ele>1125.4599609375</ele>
        <time>2017-12-23T10:09:21Z</time>
      </trkpt>
      <trkpt lat="45.35671" lon="5.9153">
        <ele>1129.4599609375</ele>
        <time>2017-12-23T10:09:25Z</time>
      </trkpt>
      <trkpt lat="45.35674" lon="5.91524">
        <ele>1130.4599609375</ele>
        <time>2017-12-23T10:09:28Z</time>
      </trkpt>
      <trkpt lat="45.35677" lon="5.91519">
        <ele>1131.4599609375</ele>
        <time>2017-12-23T10:09:32Z</time>
      </trkpt>
      <trkpt lat="45.35678" lon="5.91512">
        <ele>1132.4599609375</ele>
        <time>2017-12-23T10:09:36Z</time>
      </trkpt>
      <trkpt lat="45.35682" lon="5.91507">
        <ele>1131.4599609375</ele>
        <time>2017-12-23T10:09:40Z</time>
      </trkpt>
      <trkpt lat="45.35686" lon="5.91501">
        <ele>1133.4599609375</ele>
        <time>2017-12-23T10:09:44Z</time>
      </trkpt>
      <trkpt lat="45.3569" lon="5.91496">
        <ele>1136.4599609375</ele>
        <time>2017-12-23T10:09:49Z</time>
      </trkpt>
      <trkpt lat="45.35692" lon="5.91489">
        <ele>1137.4599609375</ele>
        <time>2017-12-23T10:09:53Z</time>
      </trkpt>
      <trkpt lat="45.35695" lon="5.91486">
        <ele>1140.4599609375</ele>
        <time>2017-12-23T10:09:56Z</time>
      </trkpt>
      <trkpt lat="45.35697" lon="5.91479">
        <ele>1140.4599609375</ele>
        <time>2017-12-23T10:10:00Z</time>
      </trkpt>
      <trkpt lat="45.35697" lon="5.91471">
        <ele>1141.4599609375</ele>
        <time>2017-12-23T10:10:05Z</time>
      </trkpt>
      <trkpt lat="45.35698" lon="5.91464">
        <ele>1142.4599609375</ele>
        <time>2017-12-23T10:10:10Z</time>
      </trkpt>
      <trkpt lat="45.35701" lon="5.91458">
        <ele>1146.4599609375</ele>
        <time>2017-12-23T10:10:15Z</time>
      </trkpt>
      <trkpt lat="45.35704" lon="5.91453">
        <ele>1148.4599609375</ele>
        <time>2017-12-23T10:10:18Z</time>
      </trkpt>
      <trkpt lat="45.35703" lon="5.91447">
        <ele>1148.4599609375</ele>
        <time>2017-12-23T10:10:21Z</time>
      </trkpt>
      <trkpt lat="45.35702" lon="5.9144">
        <ele>1151.4599609375</ele>
        <time>2017-12-23T10:10:25Z</time>
      </trkpt>
      <trkpt lat="45.35702" lon="5.91434">
        <ele>1151.4599609375</ele>
        <time>2017-12-23T10:10:29Z</time>
      </trkpt>
      <trkpt lat="45.35702" lon="5.91427">
        <ele>1151.4599609375</ele>
        <time>2017-12-23T10:10:32Z</time>
      </trkpt>
      <trkpt lat="45.35702" lon="5.91419">
        <ele>1152.4599609375</ele>
        <time>2017-12-23T10:10:36Z</time>
      </trkpt>
      <trkpt lat="45.35703" lon="5.91413">
        <ele>1154.4599609375</ele>
        <time>2017-12-23T10:10:40Z</time>
      </trkpt>
      <trkpt lat="45.35702" lon="5.91406">
        <ele>1154.4599609375</ele>
        <time>2017-12-23T10:10:44Z</time>
      </trkpt>
      <trkpt lat="45.357" lon="5.914">
        <ele>1153.4599609375</ele>
        <time>2017-12-23T10:10:48Z</time>
      </trkpt>
      <trkpt lat="45.35701" lon="5.91393">
        <ele>1154.4599609375</ele>
        <time>2017-12-23T10:10:53Z</time>
      </trkpt>
      <trkpt lat="45.357" lon="5.91387">
        <ele>1155.4599609375</ele>
        <time>2017-12-23T10:10:57Z</time>
      </trkpt>
      <trkpt lat="45.35702" lon="5.9138">
        <ele>1156.4599609375</ele>
        <time>2017-12-23T10:11:01Z</time>
      </trkpt>
      <trkpt lat="45.35703" lon="5.91373">
        <ele>1157.4599609375</ele>
        <time>2017-12-23T10:11:05Z</time>
      </trkpt>
      <trkpt lat="45.35704" lon="5.91366">
        <ele>1158.4599609375</ele>
        <time>2017-12-23T10:11:10Z</time>
      </trkpt>
      <trkpt lat="45.35705" lon="5.9136">
        <ele>1160.4599609375</ele>
        <time>2017-12-23T10:11:13Z</time>
      </trkpt>
      <trkpt lat="45.35704" lon="5.91354">
        <ele>1160.4599609375</ele>
        <time>2017-12-23T10:11:17Z</time>
      </trkpt>
      <trkpt lat="45.35704" lon="5.91347">
        <ele>1160.4599609375</ele>
        <time>2017-12-23T10:11:21Z</time>
      </trkpt>
      <trkpt lat="45.35704" lon="5.9134">
        <ele>1161.4599609375</ele>
        <time>2017-12-23T10:11:25Z</time>
      </trkpt>
      <trkpt lat="45.35706" lon="5.91333">
        <ele>1161.4599609375</ele>
        <time>2017-12-23T10:11:29Z</time>
      </trkpt>
      <trkpt lat="45.35706" lon="5.91325">
        <ele>1162.4599609375</ele>
        <time>2017-12-23T10:11:34Z</time>
      </trkpt>
      <trkpt lat="45.35707" lon="5.91318">
        <ele>1165.4599609375</ele>
        <time>2017-12-23T10:11:38Z</time>
      </trkpt>
      <trkpt lat="45.35709" lon="5.91311">
        <ele>1170.4599609375</ele>
        <time>2017-12-23T10:11:43Z</time>
      </trkpt>
      <trkpt lat="45.35709" lon="5.91304">
        <ele>1172.4599609375</ele>
        <time>2017-12-23T10:11:48Z</time>
      </trkpt>
      <trkpt lat="45.35708" lon="5.91297">
        <ele>1171.4599609375</ele>
        <time>2017-12-23T10:11:52Z</time>
      </trkpt>
      <trkpt lat="45.35708" lon="5.9129">
        <ele>1170.4599609375</ele>
        <time>2017-12-23T10:11:56Z</time>
      </trkpt>
      <trkpt lat="45.35708" lon="5.91283">
        <ele>1170.4599609375</ele>
        <time>2017-12-23T10:12:01Z</time>
      </trkpt>
      <trkpt lat="45.35707" lon="5.91276">
        <ele>1172.4599609375</ele>
        <time>2017-12-23T10:12:06Z</time>
      </trkpt>
      <trkpt lat="45.35707" lon="5.91268">
        <ele>1174.4599609375</ele>
        <time>2017-12-23T10:12:12Z</time>
      </trkpt>
      <trkpt lat="45.35708" lon="5.91262">
        <ele>1177.4599609375</ele>
        <time>2017-12-23T10:12:17Z</time>
      </trkpt>
      <trkpt lat="45.35709" lon="5.91255">
        <ele>1178.4599609375</ele>
        <time>2017-12-23T10:12:22Z</time>
      </trkpt>
      <trkpt lat="45.3571" lon="5.91248">
        <ele>1179.4599609375</ele>
        <time>2017-12-23T10:12:27Z</time>
      </trkpt>
      <trkpt lat="45.35711" lon="5.91242">
        <ele>1182.4599609375</ele>
        <time>2017-12-23T10:12:33Z</time>
      </trkpt>
      <trkpt lat="45.3571" lon="5.91234">
        <ele>1183.4599609375</ele>
        <time>2017-12-23T10:12:38Z</time>
      </trkpt>
      <trkpt lat="45.3571" lon="5.91227">
        <ele>1183.4599609375</ele>
        <time>2017-12-23T10:12:43Z</time>
      </trkpt>
      <trkpt lat="45.3571" lon="5.9122">
        <ele>1185.4599609375</ele>
        <time>2017-12-23T10:12:49Z</time>
      </trkpt>
      <trkpt lat="45.35713" lon="5.91213">
        <ele>1190.4599609375</ele>
        <time>2017-12-23T10:12:54Z</time>
      </trkpt>
      <trkpt lat="45.35711" lon="5.91207">
        <ele>1190.4599609375</ele>
        <time>2017-12-23T10:12:58Z</time>
      </trkpt>
      <trkpt lat="45.35712" lon="5.912">
        <ele>1192.4599609375</ele>
        <time>2017-12-23T10:13:03Z</time>
      </trkpt>
      <trkpt lat="45.35712" lon="5.91193">
        <ele>1193.4599609375</ele>
        <time>2017-12-23T10:13:08Z</time>
      </trkpt>
      <trkpt lat="45.35711" lon="5.91187">
        <ele>1193.4599609375</ele>
        <time>2017-12-23T10:13:25Z</time>
      </trkpt>
      <trkpt lat="45.35712" lon="5.9118">
        <ele>1198.4599609375</ele>
        <time>2017-12-23T10:14:00Z</time>
      </trkpt>
      <trkpt lat="45.35712" lon="5.91173">
        <ele>1200.4599609375</ele>
        <time>2017-12-23T10:14:05Z</time>
      </trkpt>
      <trkpt lat="45.35711" lon="5.91166">
        <ele>1201.4599609375</ele>
        <time>2017-12-23T10:14:09Z</time>
      </trkpt>
      <trkpt lat="45.35711" lon="5.91159">
        <ele>1202.4599609375</ele>
        <time>2017-12-23T10:14:14Z</time>
      </trkpt>
      <trkpt lat="45.35709" lon="5.91151">
        <ele>1204.4599609375</ele>
        <time>2017-12-23T10:14:19Z</time>
      </trkpt>
      <trkpt lat="45.35708" lon="5.91144">
        <ele>1205.4599609375</ele>
        <time>2017-12-23T10:14:24Z</time>
      </trkpt>
      <trkpt lat="45.35707" lon="5.91136">
        <ele>1206.4599609375</ele>
        <time>2017-12-23T10:14:28Z</time>
      </trkpt>
      <trkpt lat="45.35706" lon="5.91129">
        <ele>1208.4599609375</ele>
        <time>2017-12-23T10:14:33Z</time>
      </trkpt>
      <trkpt lat="45.35704" lon="5.91123">
        <ele>1210.4599609375</ele>
        <time>2017-12-23T10:14:38Z</time>
      </trkpt>
      <trkpt lat="45.35703" lon="5.91114">
        <ele>1213.4599609375</ele>
        <time>2017-12-23T10:14:44Z</time>
      </trkpt>
      <trkpt lat="45.35702" lon="5.91108">
        <ele>1216.4599609375</ele>
        <time>2017-12-23T10:14:49Z</time>
      </trkpt>
      <trkpt lat="45.357" lon="5.91101">
        <ele>1217.4599609375</ele>
        <time>2017-12-23T10:14:54Z</time>
      </trkpt>
      <trkpt lat="45.35699" lon="5.91095">
        <ele>1219.4599609375</ele>
        <time>2017-12-23T10:14:59Z</time>
      </trkpt>
      <trkpt lat="45.35696" lon="5.91088">
        <ele>1221.4599609375</ele>
        <time>2017-12-23T10:15:04Z</time>
      </trkpt>
      <trkpt lat="45.35696" lon="5.91081">
        <ele>1222.4599609375</ele>
        <time>2017-12-23T10:15:09Z</time>
      </trkpt>
      <trkpt lat="45.35694" lon="5.91075">
        <ele>1223.4599609375</ele>
        <time>2017-12-23T10:15:13Z</time>
      </trkpt>
      <trkpt lat="45.35693" lon="5.91068">
        <ele>1226.4599609375</ele>
        <time>2017-12-23T10:15:18Z</time>
      </trkpt>
      <trkpt lat="45.35692" lon="5.91062">
        <ele>1228.4599609375</ele>
        <time>2017-12-23T10:15:23Z</time>
      </trkpt>
      <trkpt lat="45.35691" lon="5.91055">
        <ele>1227.4599609375</ele>
        <time>2017-12-23T10:15:28Z</time>
      </trkpt>
      <trkpt lat="45.35689" lon="5.91047">
        <ele>1230.4599609375</ele>
        <time>2017-12-23T10:15:32Z</time>
      </trkpt>
      <trkpt lat="45.35688" lon="5.9104">
        <ele>1232.4599609375</ele>
        <time>2017-12-23T10:15:37Z</time>
      </trkpt>
      <trkpt lat="45.35686" lon="5.91034">
        <ele>1233.4599609375</ele>
        <time>2017-12-23T10:15:42Z</time>
      </trkpt>
      <trkpt lat="45.35684" lon="5.91027">
        <ele>1235.4599609375</ele>
        <time>2017-12-23T10:15:47Z</time>
      </trkpt>
      <trkpt lat="45.35682" lon="5.91019">
        <ele>1235.458984375</ele>
        <time>2017-12-23T10:15:52Z</time>
      </trkpt>
      <trkpt lat="45.35681" lon="5.91012">
        <ele>1237.458984375</ele>
        <time>2017-12-23T10:15:57Z</time>
      </trkpt>
      <trkpt lat="45.3568" lon="5.91006">
        <ele>1237.458984375</ele>
        <time>2017-12-23T10:16:01Z</time>
      </trkpt>
      <trkpt lat="45.3568" lon="5.90999">
        <ele>1239.458984375</ele>
        <time>2017-12-23T10:16:06Z</time>
      </trkpt>
      <trkpt lat="45.35679" lon="5.90992">
        <ele>1242.458984375</ele>
        <time>2017-12-23T10:16:10Z</time>
      </trkpt>
      <trkpt lat="45.35678" lon="5.90985">
        <ele>1244.458984375</ele>
        <time>2017-12-23T10:16:15Z</time>
      </trkpt>
      <trkpt lat="45.35677" lon="5.90977">
        <ele>1246.458984375</ele>
        <time>2017-12-23T10:16:20Z</time>
      </trkpt>
      <trkpt lat="45.35676" lon="5.90971">
        <ele>1248.458984375</ele>
        <time>2017-12-23T10:16:24Z</time>
      </trkpt>
      <trkpt lat="45.35676" lon="5.90964">
        <ele>1252.458984375</ele>
        <time>2017-12-23T10:16:29Z</time>
      </trkpt>
      <trkpt lat="45.35676" lon="5.90957">
        <ele>1254.458984375</ele>
        <time>2017-12-23T10:16:34Z</time>
      </trkpt>
      <trkpt lat="45.35676" lon="5.9095">
        <ele>1254.458984375</ele>
        <time>2017-12-23T10:16:39Z</time>
      </trkpt>
      <trkpt lat="45.35677" lon="5.90943">
        <ele>1256.458984375</ele>
        <time>2017-12-23T10:16:44Z</time>
      </trkpt>
      <trkpt lat="45.35677" lon="5.90937">
        <ele>1258.458984375</ele>
        <time>2017-12-23T10:16:49Z</time>
      </trkpt>
      <trkpt lat="45.35679" lon="5.9093">
        <ele>1260.458984375</ele>
        <time>2017-12-23T10:16:54Z</time>
      </trkpt>
      <trkpt lat="45.35681" lon="5.90924">
        <ele>1261.458984375</ele>
        <time>2017-12-23T10:16:59Z</time>
      </trkpt>
      <trkpt lat="45.35682" lon="5.90918">
        <ele>1263.458984375</ele>
        <time>2017-12-23T10:17:04Z</time>
      </trkpt>
      <trkpt lat="45.35684" lon="5.90911">
        <ele>1264.458984375</ele>
        <time>2017-12-23T10:17:09Z</time>
      </trkpt>
      <trkpt lat="45.35686" lon="5.90904">
        <ele>1265.458984375</ele>
        <time>2017-12-23T10:17:14Z</time>
      </trkpt>
      <trkpt lat="45.35688" lon="5.90898">
        <ele>1264.458984375</ele>
        <time>2017-12-23T10:17:18Z</time>
      </trkpt>
      <trkpt lat="45.35689" lon="5.90891">
        <ele>1265.458984375</ele>
        <time>2017-12-23T10:17:23Z</time>
      </trkpt>
      <trkpt lat="45.35692" lon="5.90885">
        <ele>1266.458984375</ele>
        <time>2017-12-23T10:17:28Z</time>
      </trkpt>
      <trkpt lat="45.35695" lon="5.9088">
        <ele>1265.458984375</ele>
        <time>2017-12-23T10:17:33Z</time>
      </trkpt>
      <trkpt lat="45.35698" lon="5.90874">
        <ele>1266.458984375</ele>
        <time>2017-12-23T10:17:39Z</time>
      </trkpt>
      <trkpt lat="45.35703" lon="5.90871">
        <ele>1268.458984375</ele>
        <time>2017-12-23T10:17:43Z</time>
      </trkpt>
      <trkpt lat="45.35708" lon="5.9087">
        <ele>1270.458984375</ele>
        <time>2017-12-23T10:17:47Z</time>
      </trkpt>
      <trkpt lat="45.35713" lon="5.90871">
        <ele>1270.458984375</ele>
        <time>2017-12-23T10:17:51Z</time>
      </trkpt>
      <trkpt lat="45.35718" lon="5.90872">
        <ele>1272.458984375</ele>
        <time>2017-12-23T10:17:56Z</time>
      </trkpt>
      <trkpt lat="45.35723" lon="5.90872">
        <ele>1272.458984375</ele>
        <time>2017-12-23T10:18:01Z</time>
      </trkpt>
      <trkpt lat="45.35728" lon="5.90873">
        <ele>1275.458984375</ele>
        <time>2017-12-23T10:18:06Z</time>
      </trkpt>
      <trkpt lat="45.35733" lon="5.90871">
        <ele>1274.458984375</ele>
        <time>2017-12-23T10:18:11Z</time>
      </trkpt>
      <trkpt lat="45.35738" lon="5.9087">
        <ele>1275.458984375</ele>
        <time>2017-12-23T10:18:16Z</time>
      </trkpt>
      <trkpt lat="45.35743" lon="5.90871">
        <ele>1277.458984375</ele>
        <time>2017-12-23T10:18:21Z</time>
      </trkpt>
      <trkpt lat="45.35748" lon="5.90873">
        <ele>1281.458984375</ele>
        <time>2017-12-23T10:18:27Z</time>
      </trkpt>
      <trkpt lat="45.35754" lon="5.90875">
        <ele>1283.458984375</ele>
        <time>2017-12-23T10:18:32Z</time>
      </trkpt>
      <trkpt lat="45.35758" lon="5.90877">
        <ele>1283.458984375</ele>
        <time>2017-12-23T10:18:36Z</time>
      </trkpt>
      <trkpt lat="45.35764" lon="5.9088">
        <ele>1284.458984375</ele>
        <time>2017-12-23T10:18:40Z</time>
      </trkpt>
      <trkpt lat="45.35769" lon="5.90882">
        <ele>1285.458984375</ele>
        <time>2017-12-23T10:18:45Z</time>
      </trkpt>
      <trkpt lat="45.35774" lon="5.90883">
        <ele>1285.4599609375</ele>
        <time>2017-12-23T10:18:51Z</time>
      </trkpt>
      <trkpt lat="45.35779" lon="5.90884">
        <ele>1289.4599609375</ele>
        <time>2017-12-23T10:18:57Z</time>
      </trkpt>
      <trkpt lat="45.35785" lon="5.90886">
        <ele>1289.4599609375</ele>
        <time>2017-12-23T10:19:01Z</time>
      </trkpt>
      <trkpt lat="45.35791" lon="5.90887">
        <ele>1288.4599609375</ele>
        <time>2017-12-23T10:19:04Z</time>
      </trkpt>
      <trkpt lat="45.35795" lon="5.9089">
        <ele>1288.4599609375</ele>
        <time>2017-12-23T10:19:07Z</time>
      </trkpt>
      <trkpt lat="45.358" lon="5.90893">
        <ele>1288.4599609375</ele>
        <time>2017-12-23T10:19:11Z</time>
      </trkpt>
      <trkpt lat="45.35804" lon="5.90887">
        <ele>1293.4599609375</ele>
        <time>2017-12-23T10:19:21Z</time>
      </trkpt>
      <trkpt lat="45.35804" lon="5.9088">
        <ele>1294.4599609375</ele>
        <time>2017-12-23T10:19:26Z</time>
      </trkpt>
      <trkpt lat="45.35805" lon="5.90873">
        <ele>1297.4599609375</ele>
        <time>2017-12-23T10:19:32Z</time>
      </trkpt>
      <trkpt lat="45.35805" lon="5.90866">
        <ele>1298.4599609375</ele>
        <time>2017-12-23T10:19:36Z</time>
      </trkpt>
      <trkpt lat="45.35801" lon="5.90862">
        <ele>1299.4599609375</ele>
        <time>2017-12-23T10:19:40Z</time>
      </trkpt>
      <trkpt lat="45.35799" lon="5.90856">
        <ele>1300.4599609375</ele>
        <time>2017-12-23T10:19:46Z</time>
      </trkpt>
      <trkpt lat="45.358" lon="5.90848">
        <ele>1299.4599609375</ele>
        <time>2017-12-23T10:19:52Z</time>
      </trkpt>
      <trkpt lat="45.35798" lon="5.90841">
        <ele>1302.4599609375</ele>
        <time>2017-12-23T10:19:58Z</time>
      </trkpt>
      <trkpt lat="45.35799" lon="5.90833">
        <ele>1305.458984375</ele>
        <time>2017-12-23T10:20:05Z</time>
      </trkpt>
      <trkpt lat="45.35797" lon="5.90825">
        <ele>1307.458984375</ele>
        <time>2017-12-23T10:20:13Z</time>
      </trkpt>
      <trkpt lat="45.35798" lon="5.90819">
        <ele>1309.458984375</ele>
        <time>2017-12-23T10:20:17Z</time>
      </trkpt>
      <trkpt lat="45.358" lon="5.90809">
        <ele>1309.458984375</ele>
        <time>2017-12-23T10:20:24Z</time>
      </trkpt>
      <trkpt lat="45.35804" lon="5.90802">
        <ele>1312.458984375</ele>
        <time>2017-12-23T10:20:29Z</time>
      </trkpt>
      <trkpt lat="45.35806" lon="5.90796">
        <ele>1315.458984375</ele>
        <time>2017-12-23T10:20:35Z</time>
      </trkpt>
      <trkpt lat="45.35807" lon="5.9079">
        <ele>1319.458984375</ele>
        <time>2017-12-23T10:20:40Z</time>
      </trkpt>
      <trkpt lat="45.35808" lon="5.90783">
        <ele>1322.458984375</ele>
        <time>2017-12-23T10:20:46Z</time>
      </trkpt>
      <trkpt lat="45.35806" lon="5.90777">
        <ele>1324.458984375</ele>
        <time>2017-12-23T10:20:51Z</time>
      </trkpt>
      <trkpt lat="45.35803" lon="5.9077">
        <ele>1326.458984375</ele>
        <time>2017-12-23T10:20:58Z</time>
      </trkpt>
      <trkpt lat="45.35799" lon="5.90766">
        <ele>1327.458984375</ele>
        <time>2017-12-23T10:21:03Z</time>
      </trkpt>
      <trkpt lat="45.35795" lon="5.90763">
        <ele>1328.458984375</ele>
        <time>2017-12-23T10:21:08Z</time>
      </trkpt>
      <trkpt lat="45.3579" lon="5.90761">
        <ele>1329.458984375</ele>
        <time>2017-12-23T10:21:11Z</time>
      </trkpt>
      <trkpt lat="45.35785" lon="5.90758">
        <ele>1331.458984375</ele>
        <time>2017-12-23T10:21:15Z</time>
      </trkpt>
      <trkpt lat="45.35782" lon="5.90754">
        <ele>1331.458984375</ele>
        <time>2017-12-23T10:21:18Z</time>
      </trkpt>
      <trkpt lat="45.35778" lon="5.9075">
        <ele>1333.458984375</ele>
        <time>2017-12-23T10:21:22Z</time>
      </trkpt>
      <trkpt lat="45.35772" lon="5.90749">
        <ele>1335.458984375</ele>
        <time>2017-12-23T10:21:25Z</time>
      </trkpt>
      <trkpt lat="45.35768" lon="5.90743">
        <ele>1334.458984375</ele>
        <time>2017-12-23T10:21:29Z</time>
      </trkpt>
      <trkpt lat="45.35766" lon="5.90736">
        <ele>1335.458984375</ele>
        <time>2017-12-23T10:21:33Z</time>
      </trkpt>
      <trkpt lat="45.35763" lon="5.90729">
        <ele>1337.458984375</ele>
        <time>2017-12-23T10:21:39Z</time>
      </trkpt>
      <trkpt lat="45.35759" lon="5.90725">
        <ele>1338.458984375</ele>
        <time>2017-12-23T10:21:43Z</time>
      </trkpt>
      <trkpt lat="45.35755" lon="5.9072">
        <ele>1342.458984375</ele>
        <time>2017-12-23T10:21:50Z</time>
      </trkpt>
      <trkpt lat="45.35752" lon="5.90714">
        <ele>1344.458984375</ele>
        <time>2017-12-23T10:21:54Z</time>
      </trkpt>
      <trkpt lat="45.3575" lon="5.90709">
        <ele>1344.458984375</ele>
        <time>2017-12-23T10:21:58Z</time>
      </trkpt>
      <trkpt lat="45.35745" lon="5.90705">
        <ele>1346.458984375</ele>
        <time>2017-12-23T10:22:02Z</time>
      </trkpt>
      <trkpt lat="45.35743" lon="5.90699">
        <ele>1363.458984375</ele>
        <time>2017-12-23T10:22:07Z</time>
      </trkpt>
      <trkpt lat="45.3574" lon="5.90693">
        <ele>1357.458984375</ele>
        <time>2017-12-23T10:22:11Z</time>
      </trkpt>
      <trkpt lat="45.35739" lon="5.90686">
        <ele>1354.458984375</ele>
        <time>2017-12-23T10:22:17Z</time>
      </trkpt>
      <trkpt lat="45.35735" lon="5.90681">
        <ele>1355.458984375</ele>
        <time>2017-12-23T10:22:21Z</time>
      </trkpt>
      <trkpt lat="45.35732" lon="5.90675">
        <ele>1355.458984375</ele>
        <time>2017-12-23T10:22:24Z</time>
      </trkpt>
      <trkpt lat="45.35729" lon="5.90669">
        <ele>1356.458984375</ele>
        <time>2017-12-23T10:22:28Z</time>
      </trkpt>
      <trkpt lat="45.35726" lon="5.90664">
        <ele>1359.458984375</ele>
        <time>2017-12-23T10:22:33Z</time>
      </trkpt>
      <trkpt lat="45.35723" lon="5.90658">
        <ele>1359.458984375</ele>
        <time>2017-12-23T10:22:38Z</time>
      </trkpt>
      <trkpt lat="45.35721" lon="5.9065">
        <ele>1359.458984375</ele>
        <time>2017-12-23T10:22:42Z</time>
      </trkpt>
      <trkpt lat="45.3572" lon="5.90644">
        <ele>1359.458984375</ele>
        <time>2017-12-23T10:22:47Z</time>
      </trkpt>
      <trkpt lat="45.3572" lon="5.90637">
        <ele>1359.458984375</ele>
        <time>2017-12-23T10:22:50Z</time>
      </trkpt>
      <trkpt lat="45.35717" lon="5.9063">
        <ele>1359.458984375</ele>
        <time>2017-12-23T10:22:53Z</time>
      </trkpt>
      <trkpt lat="45.35716" lon="5.90623">
        <ele>1360.458984375</ele>
        <time>2017-12-23T10:22:57Z</time>
      </trkpt>
      <trkpt lat="45.35715" lon="5.90616">
        <ele>1360.458984375</ele>
        <time>2017-12-23T10:23:01Z</time>
      </trkpt>
      <trkpt lat="45.35711" lon="5.90611">
        <ele>1361.458984375</ele>
        <time>2017-12-23T10:23:07Z</time>
      </trkpt>
      <trkpt lat="45.35706" lon="5.90608">
        <ele>1361.458984375</ele>
        <time>2017-12-23T10:23:11Z</time>
      </trkpt>
      <trkpt lat="45.35701" lon="5.90603">
        <ele>1364.458984375</ele>
        <time>2017-12-23T10:23:15Z</time>
      </trkpt>
      <trkpt lat="45.35698" lon="5.90598">
        <ele>1367.458984375</ele>
        <time>2017-12-23T10:23:22Z</time>
      </trkpt>
      <trkpt lat="45.35696" lon="5.90592">
        <ele>1370.458984375</ele>
        <time>2017-12-23T10:23:27Z</time>
      </trkpt>
      <trkpt lat="45.35692" lon="5.90587">
        <ele>1372.458984375</ele>
        <time>2017-12-23T10:23:31Z</time>
      </trkpt>
      <trkpt lat="45.35687" lon="5.90584">
        <ele>1374.458984375</ele>
        <time>2017-12-23T10:23:35Z</time>
      </trkpt>
      <trkpt lat="45.35683" lon="5.9058">
        <ele>1376.458984375</ele>
        <time>2017-12-23T10:23:38Z</time>
      </trkpt>
      <trkpt lat="45.35678" lon="5.90576">
        <ele>1379.458984375</ele>
        <time>2017-12-23T10:23:42Z</time>
      </trkpt>
      <trkpt lat="45.35675" lon="5.90571">
        <ele>1379.458984375</ele>
        <time>2017-12-23T10:23:45Z</time>
      </trkpt>
      <trkpt lat="45.35672" lon="5.90567">
        <ele>1379.458984375</ele>
        <time>2017-12-23T10:23:49Z</time>
      </trkpt>
      <trkpt lat="45.3567" lon="5.90558">
        <ele>1378.458984375</ele>
        <time>2017-12-23T10:23:53Z</time>
      </trkpt>
      <trkpt lat="45.35666" lon="5.90555">
        <ele>1379.458984375</ele>
        <time>2017-12-23T10:23:57Z</time>
      </trkpt>
      <trkpt lat="45.35665" lon="5.90548">
        <ele>1379.458984375</ele>
        <time>2017-12-23T10:24:02Z</time>
      </trkpt>
      <trkpt lat="45.35664" lon="5.90541">
        <ele>1379.458984375</ele>
        <time>2017-12-23T10:24:06Z</time>
      </trkpt>
      <trkpt lat="45.35663" lon="5.90535">
        <ele>1382.458984375</ele>
        <time>2017-12-23T10:24:12Z</time>
      </trkpt>
      <trkpt lat="45.35661" lon="5.90527">
        <ele>1382.458984375</ele>
        <time>2017-12-23T10:24:16Z</time>
      </trkpt>
      <trkpt lat="45.35659" lon="5.90521">
        <ele>1386.458984375</ele>
        <time>2017-12-23T10:24:21Z</time>
      </trkpt>
      <trkpt lat="45.35657" lon="5.90514">
        <ele>1388.458984375</ele>
        <time>2017-12-23T10:24:27Z</time>
      </trkpt>
      <trkpt lat="45.35655" lon="5.90507">
        <ele>1390.458984375</ele>
        <time>2017-12-23T10:24:32Z</time>
      </trkpt>
      <trkpt lat="45.35653" lon="5.90499">
        <ele>1391.458984375</ele>
        <time>2017-12-23T10:24:37Z</time>
      </trkpt>
      <trkpt lat="45.35651" lon="5.90492">
        <ele>1392.458984375</ele>
        <time>2017-12-23T10:24:43Z</time>
      </trkpt>
      <trkpt lat="45.35648" lon="5.90486">
        <ele>1395.458984375</ele>
        <time>2017-12-23T10:24:47Z</time>
      </trkpt>
      <trkpt lat="45.35648" lon="5.90479">
        <ele>1395.458984375</ele>
        <time>2017-12-23T10:24:52Z</time>
      </trkpt>
      <trkpt lat="45.35647" lon="5.90471">
        <ele>1397.458984375</ele>
        <time>2017-12-23T10:24:56Z</time>
      </trkpt>
      <trkpt lat="45.35643" lon="5.90467">
        <ele>1400.458984375</ele>
        <time>2017-12-23T10:25:00Z</time>
      </trkpt>
      <trkpt lat="45.3564" lon="5.90461">
        <ele>1404.458984375</ele>
        <time>2017-12-23T10:25:05Z</time>
      </trkpt>
      <trkpt lat="45.35639" lon="5.90454">
        <ele>1401.458984375</ele>
        <time>2017-12-23T10:25:10Z</time>
      </trkpt>
      <trkpt lat="45.35634" lon="5.90447">
        <ele>1404.458984375</ele>
        <time>2017-12-23T10:25:15Z</time>
      </trkpt>
      <trkpt lat="45.35631" lon="5.90441">
        <ele>1407.458984375</ele>
        <time>2017-12-23T10:25:18Z</time>
      </trkpt>
      <trkpt lat="45.35629" lon="5.90435">
        <ele>1408.458984375</ele>
        <time>2017-12-23T10:25:21Z</time>
      </trkpt>
      <trkpt lat="45.35625" lon="5.90429">
        <ele>1410.458984375</ele>
        <time>2017-12-23T10:25:25Z</time>
      </trkpt>
      <trkpt lat="45.35623" lon="5.90423">
        <ele>1408.458984375</ele>
        <time>2017-12-23T10:25:29Z</time>
      </trkpt>
      <trkpt lat="45.35618" lon="5.9042">
        <ele>1411.458984375</ele>
        <time>2017-12-23T10:25:33Z</time>
      </trkpt>
      <trkpt lat="45.35613" lon="5.90417">
        <ele>1413.458984375</ele>
        <time>2017-12-23T10:25:36Z</time>
      </trkpt>
      <trkpt lat="45.3561" lon="5.90412">
        <ele>1415.458984375</ele>
        <time>2017-12-23T10:25:40Z</time>
      </trkpt>
      <trkpt lat="45.35607" lon="5.90407">
        <ele>1417.458984375</ele>
        <time>2017-12-23T10:25:44Z</time>
      </trkpt>
      <trkpt lat="45.35603" lon="5.90403">
        <ele>1418.458984375</ele>
        <time>2017-12-23T10:25:48Z</time>
      </trkpt>
      <trkpt lat="45.35598" lon="5.90401">
        <ele>1421.458984375</ele>
        <time>2017-12-23T10:25:51Z</time>
      </trkpt>
      <trkpt lat="45.35594" lon="5.90398">
        <ele>1422.4580078125</ele>
        <time>2017-12-23T10:25:54Z</time>
      </trkpt>
      <trkpt lat="45.3559" lon="5.90394">
        <ele>1424.4580078125</ele>
        <time>2017-12-23T10:25:57Z</time>
      </trkpt>
      <trkpt lat="45.35586" lon="5.90389">
        <ele>1425.4580078125</ele>
        <time>2017-12-23T10:26:03Z</time>
      </trkpt>
      <trkpt lat="45.35584" lon="5.90383">
        <ele>1423.4580078125</ele>
        <time>2017-12-23T10:26:10Z</time>
      </trkpt>
      <trkpt lat="45.3558" lon="5.90378">
        <ele>1421.4580078125</ele>
        <time>2017-12-23T10:26:14Z</time>
      </trkpt>
      <trkpt lat="45.35575" lon="5.90373">
        <ele>1421.4580078125</ele>
        <time>2017-12-23T10:26:18Z</time>
      </trkpt>
      <trkpt lat="45.3557" lon="5.90371">
        <ele>1422.4580078125</ele>
        <time>2017-12-23T10:26:21Z</time>
      </trkpt>
      <trkpt lat="45.35566" lon="5.90366">
        <ele>1425.4580078125</ele>
        <time>2017-12-23T10:26:28Z</time>
      </trkpt>
      <trkpt lat="45.35562" lon="5.90363">
        <ele>1426.4580078125</ele>
        <time>2017-12-23T10:26:35Z</time>
      </trkpt>
      <trkpt lat="45.35557" lon="5.90359">
        <ele>1427.4580078125</ele>
        <time>2017-12-23T10:26:40Z</time>
      </trkpt>
      <trkpt lat="45.35551" lon="5.90357">
        <ele>1428.4580078125</ele>
        <time>2017-12-23T10:26:44Z</time>
      </trkpt>
      <trkpt lat="45.35546" lon="5.90356">
        <ele>1430.4580078125</ele>
        <time>2017-12-23T10:26:46Z</time>
      </trkpt>
      <trkpt lat="45.35543" lon="5.90351">
        <ele>1431.4580078125</ele>
        <time>2017-12-23T10:26:50Z</time>
      </trkpt>
      <trkpt lat="45.35537" lon="5.90349">
        <ele>1435.4580078125</ele>
        <time>2017-12-23T10:26:55Z</time>
      </trkpt>
      <trkpt lat="45.35532" lon="5.90349">
        <ele>1437.4580078125</ele>
        <time>2017-12-23T10:26:59Z</time>
      </trkpt>
      <trkpt lat="45.35527" lon="5.90346">
        <ele>1436.4580078125</ele>
        <time>2017-12-23T10:27:04Z</time>
      </trkpt>
      <trkpt lat="45.35522" lon="5.90345">
        <ele>1436.4580078125</ele>
        <time>2017-12-23T10:27:07Z</time>
      </trkpt>
      <trkpt lat="45.35518" lon="5.90342">
        <ele>1438.4580078125</ele>
        <time>2017-12-23T10:27:14Z</time>
      </trkpt>
      <trkpt lat="45.3552" lon="5.90336">
        <ele>1438.4580078125</ele>
        <time>2017-12-23T10:27:20Z</time>
      </trkpt>
      <trkpt lat="45.35524" lon="5.90332">
        <ele>1436.4580078125</ele>
        <time>2017-12-23T10:27:25Z</time>
      </trkpt>
      <trkpt lat="45.35528" lon="5.90328">
        <ele>1438.4580078125</ele>
        <time>2017-12-23T10:27:28Z</time>
      </trkpt>
      <trkpt lat="45.35529" lon="5.90321">
        <ele>1440.4580078125</ele>
        <time>2017-12-23T10:27:33Z</time>
      </trkpt>
      <trkpt lat="45.35525" lon="5.90316">
        <ele>1437.4580078125</ele>
        <time>2017-12-23T10:27:39Z</time>
      </trkpt>
      <trkpt lat="45.35523" lon="5.9031">
        <ele>1438.4580078125</ele>
        <time>2017-12-23T10:27:51Z</time>
      </trkpt>
      <trkpt lat="45.3552" lon="5.90304">
        <ele>1437.4580078125</ele>
        <time>2017-12-23T10:27:57Z</time>
      </trkpt>
      <trkpt lat="45.35516" lon="5.903">
        <ele>1439.4580078125</ele>
        <time>2017-12-23T10:28:00Z</time>
      </trkpt>
      <trkpt lat="45.35514" lon="5.90294">
        <ele>1441.4580078125</ele>
        <time>2017-12-23T10:28:09Z</time>
      </trkpt>
      <trkpt lat="45.3551" lon="5.90289">
        <ele>1443.4580078125</ele>
        <time>2017-12-23T10:28:15Z</time>
      </trkpt>
      <trkpt lat="45.35505" lon="5.90286">
        <ele>1445.4580078125</ele>
        <time>2017-12-23T10:28:18Z</time>
      </trkpt>
      <trkpt lat="45.35501" lon="5.90286">
        <ele>1445.4580078125</ele>
        <time>2017-12-23T10:28:22Z</time>
      </trkpt>
      <trkpt lat="45.35496" lon="5.90287">
        <ele>1450.4580078125</ele>
        <time>2017-12-23T10:28:26Z</time>
      </trkpt>
      <trkpt lat="45.35491" lon="5.9029">
        <ele>1451.4580078125</ele>
        <time>2017-12-23T10:28:29Z</time>
      </trkpt>
      <trkpt lat="45.35487" lon="5.90293">
        <ele>1452.4580078125</ele>
        <time>2017-12-23T10:28:33Z</time>
      </trkpt>
      <trkpt lat="45.35481" lon="5.90294">
        <ele>1452.4580078125</ele>
        <time>2017-12-23T10:28:39Z</time>
      </trkpt>
      <trkpt lat="45.35476" lon="5.90291">
        <ele>1455.4580078125</ele>
        <time>2017-12-23T10:28:44Z</time>
      </trkpt>
      <trkpt lat="45.35474" lon="5.90284">
        <ele>1458.4580078125</ele>
        <time>2017-12-23T10:28:50Z</time>
      </trkpt>
      <trkpt lat="45.35471" lon="5.90277">
        <ele>1460.4580078125</ele>
        <time>2017-12-23T10:28:57Z</time>
      </trkpt>
      <trkpt lat="45.35472" lon="5.9027">
        <ele>1462.4580078125</ele>
        <time>2017-12-23T10:29:03Z</time>
      </trkpt>
      <trkpt lat="45.35472" lon="5.90263">
        <ele>1464.4580078125</ele>
        <time>2017-12-23T10:29:08Z</time>
      </trkpt>
      <trkpt lat="45.35471" lon="5.90256">
        <ele>1465.4580078125</ele>
        <time>2017-12-23T10:29:13Z</time>
      </trkpt>
      <trkpt lat="45.3547" lon="5.90249">
        <ele>1466.4580078125</ele>
        <time>2017-12-23T10:29:17Z</time>
      </trkpt>
      <trkpt lat="45.3547" lon="5.90241">
        <ele>1467.4580078125</ele>
        <time>2017-12-23T10:29:22Z</time>
      </trkpt>
      <trkpt lat="45.35472" lon="5.90234">
        <ele>1467.4580078125</ele>
        <time>2017-12-23T10:29:26Z</time>
      </trkpt>
      <trkpt lat="45.35474" lon="5.90226">
        <ele>1468.4580078125</ele>
        <time>2017-12-23T10:29:30Z</time>
      </trkpt>
      <trkpt lat="45.35475" lon="5.9022">
        <ele>1469.4580078125</ele>
        <time>2017-12-23T10:29:34Z</time>
      </trkpt>
      <trkpt lat="45.35475" lon="5.90213">
        <ele>1469.4580078125</ele>
        <time>2017-12-23T10:29:38Z</time>
      </trkpt>
      <trkpt lat="45.35476" lon="5.90207">
        <ele>1471.4580078125</ele>
        <time>2017-12-23T10:29:41Z</time>
      </trkpt>
      <trkpt lat="45.35478" lon="5.90199">
        <ele>1471.4580078125</ele>
        <time>2017-12-23T10:29:45Z</time>
      </trkpt>
      <trkpt lat="45.35481" lon="5.90193">
        <ele>1471.4580078125</ele>
        <time>2017-12-23T10:29:48Z</time>
      </trkpt>
      <trkpt lat="45.35483" lon="5.90187">
        <ele>1473.4580078125</ele>
        <time>2017-12-23T10:29:52Z</time>
      </trkpt>
      <trkpt lat="45.35485" lon="5.90179">
        <ele>1475.4580078125</ele>
        <time>2017-12-23T10:29:57Z</time>
      </trkpt>
      <trkpt lat="45.35488" lon="5.90172">
        <ele>1474.4580078125</ele>
        <time>2017-12-23T10:30:01Z</time>
      </trkpt>
      <trkpt lat="45.35492" lon="5.90166">
        <ele>1474.4580078125</ele>
        <time>2017-12-23T10:30:05Z</time>
      </trkpt>
      <trkpt lat="45.35497" lon="5.90164">
        <ele>1476.4580078125</ele>
        <time>2017-12-23T10:30:10Z</time>
      </trkpt>
      <trkpt lat="45.35502" lon="5.90161">
        <ele>1478.4580078125</ele>
        <time>2017-12-23T10:30:15Z</time>
      </trkpt>
      <trkpt lat="45.35508" lon="5.90161">
        <ele>1480.4580078125</ele>
        <time>2017-12-23T10:30:20Z</time>
      </trkpt>
      <trkpt lat="45.35514" lon="5.9016">
        <ele>1480.4580078125</ele>
        <time>2017-12-23T10:30:24Z</time>
      </trkpt>
      <trkpt lat="45.35519" lon="5.9016">
        <ele>1479.4580078125</ele>
        <time>2017-12-23T10:30:28Z</time>
      </trkpt>
      <trkpt lat="45.35523" lon="5.90164">
        <ele>1482.4580078125</ele>
        <time>2017-12-23T10:30:32Z</time>
      </trkpt>
      <trkpt lat="45.35528" lon="5.90163">
        <ele>1483.4580078125</ele>
        <time>2017-12-23T10:30:37Z</time>
      </trkpt>
      <trkpt lat="45.35533" lon="5.90165">
        <ele>1485.4580078125</ele>
        <time>2017-12-23T10:30:42Z</time>
      </trkpt>
      <trkpt lat="45.35537" lon="5.90167">
        <ele>1487.4580078125</ele>
        <time>2017-12-23T10:30:46Z</time>
      </trkpt>
      <trkpt lat="45.35542" lon="5.90167">
        <ele>1490.4580078125</ele>
        <time>2017-12-23T10:30:50Z</time>
      </trkpt>
      <trkpt lat="45.35548" lon="5.90167">
        <ele>1491.4580078125</ele>
        <time>2017-12-23T10:30:57Z</time>
      </trkpt>
      <trkpt lat="45.35552" lon="5.90167">
        <ele>1493.4580078125</ele>
        <time>2017-12-23T10:31:02Z</time>
      </trkpt>
      <trkpt lat="45.35557" lon="5.90165">
        <ele>1494.4580078125</ele>
        <time>2017-12-23T10:31:07Z</time>
      </trkpt>
      <trkpt lat="45.35562" lon="5.90164">
        <ele>1493.4580078125</ele>
        <time>2017-12-23T10:31:11Z</time>
      </trkpt>
      <trkpt lat="45.35567" lon="5.90166">
        <ele>1495.4580078125</ele>
        <time>2017-12-23T10:31:18Z</time>
      </trkpt>
      <trkpt lat="45.35571" lon="5.9017">
        <ele>1499.4580078125</ele>
        <time>2017-12-23T10:31:24Z</time>
      </trkpt>
      <trkpt lat="45.35575" lon="5.90168">
        <ele>1499.4580078125</ele>
        <time>2017-12-23T10:31:30Z</time>
      </trkpt>
      <trkpt lat="45.35581" lon="5.90167">
        <ele>1501.4580078125</ele>
        <time>2017-12-23T10:31:36Z</time>
      </trkpt>
      <trkpt lat="45.35585" lon="5.90165">
        <ele>1502.4580078125</ele>
        <time>2017-12-23T10:31:41Z</time>
      </trkpt>
      <trkpt lat="45.35591" lon="5.90164">
        <ele>1501.4580078125</ele>
        <time>2017-12-23T10:31:47Z</time>
      </trkpt>
      <trkpt lat="45.35596" lon="5.90161">
        <ele>1501.4580078125</ele>
        <time>2017-12-23T10:31:52Z</time>
      </trkpt>
      <trkpt lat="45.35601" lon="5.9016">
        <ele>1503.4580078125</ele>
        <time>2017-12-23T10:31:58Z</time>
      </trkpt>
      <trkpt lat="45.35605" lon="5.90162">
        <ele>1503.4580078125</ele>
        <time>2017-12-23T10:32:02Z</time>
      </trkpt>
      <trkpt lat="45.3561" lon="5.90164">
        <ele>1505.4580078125</ele>
        <time>2017-12-23T10:32:06Z</time>
      </trkpt>
      <trkpt lat="45.35615" lon="5.90162">
        <ele>1507.4580078125</ele>
        <time>2017-12-23T10:32:16Z</time>
      </trkpt>
      <trkpt lat="45.3562" lon="5.90161">
        <ele>1513.4580078125</ele>
        <time>2017-12-23T10:32:22Z</time>
      </trkpt>
      <trkpt lat="45.35624" lon="5.90163">
        <ele>1514.4580078125</ele>
        <time>2017-12-23T10:32:26Z</time>
      </trkpt>
      <trkpt lat="45.35631" lon="5.90159">
        <ele>1515.4580078125</ele>
        <time>2017-12-23T10:32:34Z</time>
      </trkpt>
      <trkpt lat="45.35638" lon="5.90156">
        <ele>1514.4580078125</ele>
        <time>2017-12-23T10:32:38Z</time>
      </trkpt>
      <trkpt lat="45.35644" lon="5.90156">
        <ele>1518.4580078125</ele>
        <time>2017-12-23T10:32:43Z</time>
      </trkpt>
      <trkpt lat="45.35648" lon="5.90154">
        <ele>1517.4580078125</ele>
        <time>2017-12-23T10:32:47Z</time>
      </trkpt>
      <trkpt lat="45.35653" lon="5.90155">
        <ele>1520.4580078125</ele>
        <time>2017-12-23T10:32:51Z</time>
      </trkpt>
      <trkpt lat="45.35658" lon="5.90156">
        <ele>1523.4580078125</ele>
        <time>2017-12-23T10:32:55Z</time>
      </trkpt>
      <trkpt lat="45.35663" lon="5.90157">
        <ele>1527.4580078125</ele>
        <time>2017-12-23T10:33:01Z</time>
      </trkpt>
      <trkpt lat="45.35669" lon="5.90156">
        <ele>1527.4580078125</ele>
        <time>2017-12-23T10:33:06Z</time>
      </trkpt>
      <trkpt lat="45.35674" lon="5.90156">
        <ele>1531.4580078125</ele>
        <time>2017-12-23T10:33:12Z</time>
      </trkpt>
      <trkpt lat="45.35677" lon="5.90149">
        <ele>1532.4580078125</ele>
        <time>2017-12-23T10:33:19Z</time>
      </trkpt>
      <trkpt lat="45.35674" lon="5.90143">
        <ele>1535.4580078125</ele>
        <time>2017-12-23T10:33:24Z</time>
      </trkpt>
      <trkpt lat="45.35672" lon="5.90137">
        <ele>1539.4580078125</ele>
        <time>2017-12-23T10:33:30Z</time>
      </trkpt>
      <trkpt lat="45.3567" lon="5.90131">
        <ele>1541.4580078125</ele>
        <time>2017-12-23T10:33:37Z</time>
      </trkpt>
      <trkpt lat="45.35667" lon="5.90124">
        <ele>1542.4580078125</ele>
        <time>2017-12-23T10:33:44Z</time>
      </trkpt>
      <trkpt lat="45.35663" lon="5.90121">
        <ele>1546.4580078125</ele>
        <time>2017-12-23T10:33:50Z</time>
      </trkpt>
      <trkpt lat="45.35659" lon="5.90116">
        <ele>1548.4580078125</ele>
        <time>2017-12-23T10:33:55Z</time>
      </trkpt>
      <trkpt lat="45.35659" lon="5.90109">
        <ele>1548.4580078125</ele>
        <time>2017-12-23T10:33:59Z</time>
      </trkpt>
      <trkpt lat="45.35657" lon="5.90102">
        <ele>1550.4580078125</ele>
        <time>2017-12-23T10:34:06Z</time>
      </trkpt>
      <trkpt lat="45.35655" lon="5.90096">
        <ele>1548.4580078125</ele>
        <time>2017-12-23T10:34:10Z</time>
      </trkpt>
      <trkpt lat="45.35652" lon="5.9009">
        <ele>1550.4580078125</ele>
        <time>2017-12-23T10:34:15Z</time>
      </trkpt>
      <trkpt lat="45.35649" lon="5.90084">
        <ele>1551.4580078125</ele>
        <time>2017-12-23T10:34:19Z</time>
      </trkpt>
      <trkpt lat="45.35645" lon="5.9008">
        <ele>1552.4580078125</ele>
        <time>2017-12-23T10:34:23Z</time>
      </trkpt>
      <trkpt lat="45.35641" lon="5.90075">
        <ele>1554.4580078125</ele>
        <time>2017-12-23T10:34:28Z</time>
      </trkpt>
      <trkpt lat="45.35637" lon="5.90073">
        <ele>1556.4580078125</ele>
        <time>2017-12-23T10:34:31Z</time>
      </trkpt>
      <trkpt lat="45.35634" lon="5.90067">
        <ele>1556.4580078125</ele>
        <time>2017-12-23T10:34:36Z</time>
      </trkpt>
      <trkpt lat="45.3563" lon="5.90062">
        <ele>1561.4580078125</ele>
        <time>2017-12-23T10:34:41Z</time>
      </trkpt>
      <trkpt lat="45.35627" lon="5.90056">
        <ele>1563.4580078125</ele>
        <time>2017-12-23T10:34:46Z</time>
      </trkpt>
      <trkpt lat="45.35625" lon="5.90049">
        <ele>1563.4580078125</ele>
        <time>2017-12-23T10:34:52Z</time>
      </trkpt>
      <trkpt lat="45.35622" lon="5.90044">
        <ele>1566.4580078125</ele>
        <time>2017-12-23T10:34:57Z</time>
      </trkpt>
      <trkpt lat="45.35621" lon="5.90037">
        <ele>1567.4580078125</ele>
        <time>2017-12-23T10:35:02Z</time>
      </trkpt>
      <trkpt lat="45.35619" lon="5.90031">
        <ele>1568.4580078125</ele>
        <time>2017-12-23T10:35:06Z</time>
      </trkpt>
      <trkpt lat="45.35621" lon="5.90024">
        <ele>1567.4580078125</ele>
        <time>2017-12-23T10:35:11Z</time>
      </trkpt>
      <trkpt lat="45.35619" lon="5.90018">
        <ele>1569.4580078125</ele>
        <time>2017-12-23T10:35:15Z</time>
      </trkpt>
      <trkpt lat="45.35617" lon="5.90012">
        <ele>1568.4580078125</ele>
        <time>2017-12-23T10:35:18Z</time>
      </trkpt>
      <trkpt lat="45.35615" lon="5.90005">
        <ele>1570.4580078125</ele>
        <time>2017-12-23T10:35:23Z</time>
      </trkpt>
      <trkpt lat="45.35613" lon="5.89998">
        <ele>1574.4580078125</ele>
        <time>2017-12-23T10:35:30Z</time>
      </trkpt>
      <trkpt lat="45.35615" lon="5.89992">
        <ele>1572.4580078125</ele>
        <time>2017-12-23T10:35:33Z</time>
      </trkpt>
      <trkpt lat="45.35614" lon="5.89984">
        <ele>1573.4580078125</ele>
        <time>2017-12-23T10:35:37Z</time>
      </trkpt>
      <trkpt lat="45.35614" lon="5.89977">
        <ele>1576.4580078125</ele>
        <time>2017-12-23T10:35:43Z</time>
      </trkpt>
      <trkpt lat="45.35614" lon="5.89969">
        <ele>1582.4580078125</ele>
        <time>2017-12-23T10:35:51Z</time>
      </trkpt>
      <trkpt lat="45.35619" lon="5.89966">
        <ele>1585.4580078125</ele>
        <time>2017-12-23T10:36:01Z</time>
      </trkpt>
      <trkpt lat="45.35618" lon="5.8996">
        <ele>1588.4580078125</ele>
        <time>2017-12-23T10:36:07Z</time>
      </trkpt>
      <trkpt lat="45.35616" lon="5.89953">
        <ele>1590.4580078125</ele>
        <time>2017-12-23T10:36:13Z</time>
      </trkpt>
      <trkpt lat="45.3562" lon="5.89949">
        <ele>1595.4580078125</ele>
        <time>2017-12-23T10:36:39Z</time>
      </trkpt>
      <trkpt lat="45.3562" lon="5.89941">
        <ele>1596.4580078125</ele>
        <time>2017-12-23T10:36:46Z</time>
      </trkpt>
      <trkpt lat="45.35621" lon="5.89933">
        <ele>1596.4580078125</ele>
        <time>2017-12-23T10:36:50Z</time>
      </trkpt>
      <trkpt lat="45.35626" lon="5.89929">
        <ele>1597.4580078125</ele>
        <time>2017-12-23T10:36:56Z</time>
      </trkpt>
      <trkpt lat="45.35627" lon="5.89923">
        <ele>1599.4580078125</ele>
        <time>2017-12-23T10:37:02Z</time>
      </trkpt>
      <trkpt lat="45.35629" lon="5.89916">
        <ele>1599.4580078125</ele>
        <time>2017-12-23T10:37:06Z</time>
      </trkpt>
      <trkpt lat="45.3563" lon="5.89909">
        <ele>1601.4580078125</ele>
        <time>2017-12-23T10:37:10Z</time>
      </trkpt>
      <trkpt lat="45.3563" lon="5.89901">
        <ele>1602.4580078125</ele>
        <time>2017-12-23T10:37:16Z</time>
      </trkpt>
      <trkpt lat="45.3563" lon="5.89895">
        <ele>1603.4580078125</ele>
        <time>2017-12-23T10:37:21Z</time>
      </trkpt>
      <trkpt lat="45.35632" lon="5.89888">
        <ele>1603.4580078125</ele>
        <time>2017-12-23T10:37:24Z</time>
      </trkpt>
      <trkpt lat="45.35628" lon="5.89884">
        <ele>1609.4580078125</ele>
        <time>2017-12-23T10:37:29Z</time>
      </trkpt>
      <trkpt lat="45.35626" lon="5.89877">
        <ele>1613.4580078125</ele>
        <time>2017-12-23T10:37:35Z</time>
      </trkpt>
      <trkpt lat="45.35624" lon="5.8987">
        <ele>1615.4580078125</ele>
        <time>2017-12-23T10:37:40Z</time>
      </trkpt>
      <trkpt lat="45.35625" lon="5.89863">
        <ele>1613.4580078125</ele>
        <time>2017-12-23T10:37:44Z</time>
      </trkpt>
      <trkpt lat="45.35622" lon="5.89856">
        <ele>1615.4580078125</ele>
        <time>2017-12-23T10:37:48Z</time>
      </trkpt>
      <trkpt lat="45.35621" lon="5.89849">
        <ele>1614.4580078125</ele>
        <time>2017-12-23T10:37:53Z</time>
      </trkpt>
      <trkpt lat="45.35618" lon="5.89843">
        <ele>1616.4580078125</ele>
        <time>2017-12-23T10:37:58Z</time>
      </trkpt>
      <trkpt lat="45.35618" lon="5.89836">
        <ele>1616.4580078125</ele>
        <time>2017-12-23T10:38:02Z</time>
      </trkpt>
      <trkpt lat="45.35624" lon="5.89836">
        <ele>1619.4580078125</ele>
        <time>2017-12-23T10:38:09Z</time>
      </trkpt>
      <trkpt lat="45.35627" lon="5.89839">
        <ele>1620.4580078125</ele>
        <time>2017-12-23T10:38:14Z</time>
      </trkpt>
      <trkpt lat="45.35632" lon="5.89837">
        <ele>1624.4580078125</ele>
        <time>2017-12-23T10:38:20Z</time>
      </trkpt>
      <trkpt lat="45.3563" lon="5.8983">
        <ele>1624.4580078125</ele>
        <time>2017-12-23T10:38:28Z</time>
      </trkpt>
      <trkpt lat="45.3563" lon="5.89823">
        <ele>1625.4580078125</ele>
        <time>2017-12-23T10:38:33Z</time>
      </trkpt>
      <trkpt lat="45.3563" lon="5.89816">
        <ele>1623.4580078125</ele>
        <time>2017-12-23T10:38:38Z</time>
      </trkpt>
      <trkpt lat="45.35628" lon="5.8981">
        <ele>1626.4580078125</ele>
        <time>2017-12-23T10:38:45Z</time>
      </trkpt>
      <trkpt lat="45.35626" lon="5.89804">
        <ele>1626.4580078125</ele>
        <time>2017-12-23T10:38:51Z</time>
      </trkpt>
      <trkpt lat="45.35623" lon="5.89798">
        <ele>1627.4580078125</ele>
        <time>2017-12-23T10:38:56Z</time>
      </trkpt>
      <trkpt lat="45.35621" lon="5.89792">
        <ele>1629.4580078125</ele>
        <time>2017-12-23T10:39:01Z</time>
      </trkpt>
      <trkpt lat="45.35619" lon="5.89786">
        <ele>1633.4580078125</ele>
        <time>2017-12-23T10:39:06Z</time>
      </trkpt>
      <trkpt lat="45.35618" lon="5.89779">
        <ele>1636.4580078125</ele>
        <time>2017-12-23T10:39:12Z</time>
      </trkpt>
      <trkpt lat="45.35618" lon="5.89772">
        <ele>1636.4580078125</ele>
        <time>2017-12-23T10:39:17Z</time>
      </trkpt>
      <trkpt lat="45.35618" lon="5.89764">
        <ele>1638.4580078125</ele>
        <time>2017-12-23T10:39:25Z</time>
      </trkpt>
      <trkpt lat="45.35617" lon="5.89758">
        <ele>1639.4580078125</ele>
        <time>2017-12-23T10:39:30Z</time>
      </trkpt>
      <trkpt lat="45.35617" lon="5.89751">
        <ele>1641.4580078125</ele>
        <time>2017-12-23T10:39:36Z</time>
      </trkpt>
      <trkpt lat="45.35614" lon="5.89744">
        <ele>1642.4580078125</ele>
        <time>2017-12-23T10:39:42Z</time>
      </trkpt>
      <trkpt lat="45.35612" lon="5.89737">
        <ele>1645.4580078125</ele>
        <time>2017-12-23T10:39:50Z</time>
      </trkpt>
      <trkpt lat="45.35611" lon="5.8973">
        <ele>1648.4580078125</ele>
        <time>2017-12-23T10:39:56Z</time>
      </trkpt>
      <trkpt lat="45.3561" lon="5.89722">
        <ele>1651.4580078125</ele>
        <time>2017-12-23T10:40:02Z</time>
      </trkpt>
      <trkpt lat="45.35609" lon="5.89714">
        <ele>1654.4580078125</ele>
        <time>2017-12-23T10:40:09Z</time>
      </trkpt>
      <trkpt lat="45.35613" lon="5.8971">
        <ele>1655.4580078125</ele>
        <time>2017-12-23T10:40:16Z</time>
      </trkpt>
      <trkpt lat="45.35613" lon="5.89703">
        <ele>1655.4580078125</ele>
        <time>2017-12-23T10:40:24Z</time>
      </trkpt>
      <trkpt lat="45.3561" lon="5.89697">
        <ele>1659.4580078125</ele>
        <time>2017-12-23T10:40:31Z</time>
      </trkpt>
      <trkpt lat="45.35611" lon="5.89689">
        <ele>1658.4580078125</ele>
        <time>2017-12-23T10:40:38Z</time>
      </trkpt>
      <trkpt lat="45.35616" lon="5.89688">
        <ele>1658.4580078125</ele>
        <time>2017-12-23T10:40:44Z</time>
      </trkpt>
      <trkpt lat="45.35616" lon="5.8968">
        <ele>1659.4580078125</ele>
        <time>2017-12-23T10:40:51Z</time>
      </trkpt>
      <trkpt lat="45.35614" lon="5.89674">
        <ele>1661.4580078125</ele>
        <time>2017-12-23T10:40:58Z</time>
      </trkpt>
      <trkpt lat="45.35617" lon="5.89668">
        <ele>1665.4580078125</ele>
        <time>2017-12-23T10:41:06Z</time>
      </trkpt>
      <trkpt lat="45.35616" lon="5.89661">
        <ele>1665.4580078125</ele>
        <time>2017-12-23T10:41:14Z</time>
      </trkpt>
      <trkpt lat="45.35616" lon="5.89653">
        <ele>1666.4580078125</ele>
        <time>2017-12-23T10:41:21Z</time>
      </trkpt>
      <trkpt lat="45.35614" lon="5.89647">
        <ele>1667.4580078125</ele>
        <time>2017-12-23T10:41:28Z</time>
      </trkpt>
      <trkpt lat="45.35618" lon="5.89641">
        <ele>1669.4580078125</ele>
        <time>2017-12-23T10:41:49Z</time>
      </trkpt>
      <trkpt lat="45.35623" lon="5.89641">
        <ele>1671.4580078125</ele>
        <time>2017-12-23T10:41:55Z</time>
      </trkpt>
      <trkpt lat="45.35627" lon="5.89645">
        <ele>1673.4580078125</ele>
        <time>2017-12-23T10:42:01Z</time>
      </trkpt>
      <trkpt lat="45.3563" lon="5.8965">
        <ele>1674.4580078125</ele>
        <time>2017-12-23T10:42:07Z</time>
      </trkpt>
      <trkpt lat="45.35633" lon="5.89656">
        <ele>1676.4580078125</ele>
        <time>2017-12-23T10:42:15Z</time>
      </trkpt>
      <trkpt lat="45.35637" lon="5.89654">
        <ele>1680.4580078125</ele>
        <time>2017-12-23T10:42:24Z</time>
      </trkpt>
      <trkpt lat="45.35642" lon="5.89655">
        <ele>1686.4580078125</ele>
        <time>2017-12-23T10:42:34Z</time>
      </trkpt>
      <trkpt lat="45.35646" lon="5.89657">
        <ele>1688.4580078125</ele>
        <time>2017-12-23T10:42:45Z</time>
      </trkpt>
      <trkpt lat="45.35646" lon="5.8965">
        <ele>1685.4580078125</ele>
        <time>2017-12-23T10:42:55Z</time>
      </trkpt>
      <trkpt lat="45.35646" lon="5.89642">
        <ele>1686.4580078125</ele>
        <time>2017-12-23T10:43:01Z</time>
      </trkpt>
      <trkpt lat="45.35644" lon="5.89635">
        <ele>1687.4580078125</ele>
        <time>2017-12-23T10:43:08Z</time>
      </trkpt>
      <trkpt lat="45.35648" lon="5.89629">
        <ele>1690.4580078125</ele>
        <time>2017-12-23T10:43:17Z</time>
      </trkpt>
      <trkpt lat="45.35653" lon="5.89628">
        <ele>1690.4580078125</ele>
        <time>2017-12-23T10:43:23Z</time>
      </trkpt>
      <trkpt lat="45.35651" lon="5.8962">
        <ele>1700.4580078125</ele>
        <time>2017-12-23T10:43:37Z</time>
      </trkpt>
      <trkpt lat="45.35649" lon="5.89613">
        <ele>1701.4580078125</ele>
        <time>2017-12-23T10:43:43Z</time>
      </trkpt>
      <trkpt lat="45.35648" lon="5.89606">
        <ele>1705.4580078125</ele>
        <time>2017-12-23T10:43:48Z</time>
      </trkpt>
      <trkpt lat="45.35646" lon="5.89599">
        <ele>1702.4580078125</ele>
        <time>2017-12-23T10:43:52Z</time>
      </trkpt>
      <trkpt lat="45.35643" lon="5.89593">
        <ele>1703.4580078125</ele>
        <time>2017-12-23T10:43:56Z</time>
      </trkpt>
      <trkpt lat="45.35639" lon="5.8959">
        <ele>1707.4580078125</ele>
        <time>2017-12-23T10:44:02Z</time>
      </trkpt>
      <trkpt lat="45.35634" lon="5.89588">
        <ele>1710.4580078125</ele>
        <time>2017-12-23T10:44:07Z</time>
      </trkpt>
      <trkpt lat="45.35631" lon="5.89582">
        <ele>1711.45703125</ele>
        <time>2017-12-23T10:44:13Z</time>
      </trkpt>
      <trkpt lat="45.35634" lon="5.89574">
        <ele>1708.45703125</ele>
        <time>2017-12-23T10:44:19Z</time>
      </trkpt>
      <trkpt lat="45.35638" lon="5.8957">
        <ele>1705.45703125</ele>
        <time>2017-12-23T10:44:21Z</time>
      </trkpt>
      <trkpt lat="45.35643" lon="5.89574">
        <ele>1708.4580078125</ele>
        <time>2017-12-23T10:44:29Z</time>
      </trkpt>
      <trkpt lat="45.35648" lon="5.89575">
        <ele>1710.4580078125</ele>
        <time>2017-12-23T10:44:34Z</time>
      </trkpt>
      <trkpt lat="45.35654" lon="5.89575">
        <ele>1712.4580078125</ele>
        <time>2017-12-23T10:44:41Z</time>
      </trkpt>
      <trkpt lat="45.35657" lon="5.8958">
        <ele>1719.4580078125</ele>
        <time>2017-12-23T10:44:48Z</time>
      </trkpt>
      <trkpt lat="45.35662" lon="5.89577">
        <ele>1721.4580078125</ele>
        <time>2017-12-23T10:44:54Z</time>
      </trkpt>
      <trkpt lat="45.35659" lon="5.89571">
        <ele>1725.4580078125</ele>
        <time>2017-12-23T10:45:03Z</time>
      </trkpt>
      <trkpt lat="45.35657" lon="5.89555">
        <ele>1736.4580078125</ele>
        <time>2017-12-23T10:45:24Z</time>
      </trkpt>
      <trkpt lat="45.35663" lon="5.89558">
        <ele>1739.4580078125</ele>
        <time>2017-12-23T10:45:30Z</time>
      </trkpt>
      <trkpt lat="45.35668" lon="5.89562">
        <ele>1742.4580078125</ele>
        <time>2017-12-23T10:45:36Z</time>
      </trkpt>
      <trkpt lat="45.35672" lon="5.89563">
        <ele>1744.4580078125</ele>
        <time>2017-12-23T10:45:42Z</time>
      </trkpt>
      <trkpt lat="45.35675" lon="5.89569">
        <ele>1748.4580078125</ele>
        <time>2017-12-23T10:45:51Z</time>
      </trkpt>
      <trkpt lat="45.35678" lon="5.89574">
        <ele>1754.4580078125</ele>
        <time>2017-12-23T10:45:57Z</time>
      </trkpt>
      <trkpt lat="45.35682" lon="5.89576">
        <ele>1761.4580078125</ele>
        <time>2017-12-23T10:46:10Z</time>
      </trkpt>
      <trkpt lat="45.35687" lon="5.89579">
        <ele>1762.4580078125</ele>
        <time>2017-12-23T10:46:16Z</time>
      </trkpt>
      <trkpt lat="45.35688" lon="5.89571">
        <ele>1763.4580078125</ele>
        <time>2017-12-23T10:46:26Z</time>
      </trkpt>
      <trkpt lat="45.35685" lon="5.89566">
        <ele>1766.4580078125</ele>
        <time>2017-12-23T10:46:31Z</time>
      </trkpt>
      <trkpt lat="45.35683" lon="5.89559">
        <ele>1767.4580078125</ele>
        <time>2017-12-23T10:46:35Z</time>
      </trkpt>
      <trkpt lat="45.35679" lon="5.89554">
        <ele>1769.4580078125</ele>
        <time>2017-12-23T10:46:40Z</time>
      </trkpt>
      <trkpt lat="45.35674" lon="5.89553">
        <ele>1774.4580078125</ele>
        <time>2017-12-23T10:46:43Z</time>
      </trkpt>
      <trkpt lat="45.35674" lon="5.89546">
        <ele>1771.4580078125</ele>
        <time>2017-12-23T10:46:48Z</time>
      </trkpt>
      <trkpt lat="45.35679" lon="5.89544">
        <ele>1767.4580078125</ele>
        <time>2017-12-23T10:46:52Z</time>
      </trkpt>
      <trkpt lat="45.35683" lon="5.89548">
        <ele>1773.4580078125</ele>
        <time>2017-12-23T10:47:07Z</time>
      </trkpt>
      <trkpt lat="45.35688" lon="5.89551">
        <ele>1775.4580078125</ele>
        <time>2017-12-23T10:47:11Z</time>
      </trkpt>
      <trkpt lat="45.35691" lon="5.89555">
        <ele>1777.4580078125</ele>
        <time>2017-12-23T10:47:15Z</time>
      </trkpt>
      <trkpt lat="45.35695" lon="5.89561">
        <ele>1778.4580078125</ele>
        <time>2017-12-23T10:47:20Z</time>
      </trkpt>
      <trkpt lat="45.35695" lon="5.89568">
        <ele>1784.4580078125</ele>
        <time>2017-12-23T10:47:24Z</time>
      </trkpt>
      <trkpt lat="45.35699" lon="5.89572">
        <ele>1787.4580078125</ele>
        <time>2017-12-23T10:47:30Z</time>
      </trkpt>
      <trkpt lat="45.35703" lon="5.89565">
        <ele>1787.4580078125</ele>
        <time>2017-12-23T10:47:36Z</time>
      </trkpt>
      <trkpt lat="45.357" lon="5.89558">
        <ele>1788.4580078125</ele>
        <time>2017-12-23T10:47:42Z</time>
      </trkpt>
      <trkpt lat="45.35701" lon="5.8955">
        <ele>1786.4580078125</ele>
        <time>2017-12-23T10:47:45Z</time>
      </trkpt>
      <trkpt lat="45.357" lon="5.89544">
        <ele>1787.4580078125</ele>
        <time>2017-12-23T10:47:48Z</time>
      </trkpt>
      <trkpt lat="45.35704" lon="5.89537">
        <ele>1783.4580078125</ele>
        <time>2017-12-23T10:47:53Z</time>
      </trkpt>
      <trkpt lat="45.35709" lon="5.89538">
        <ele>1783.4580078125</ele>
        <time>2017-12-23T10:47:57Z</time>
      </trkpt>
      <trkpt lat="45.35712" lon="5.89544">
        <ele>1786.4580078125</ele>
        <time>2017-12-23T10:48:02Z</time>
      </trkpt>
      <trkpt lat="45.35712" lon="5.89552">
        <ele>1789.4580078125</ele>
        <time>2017-12-23T10:48:06Z</time>
      </trkpt>
      <trkpt lat="45.35714" lon="5.89558">
        <ele>1788.4580078125</ele>
        <time>2017-12-23T10:48:10Z</time>
      </trkpt>
      <trkpt lat="45.35716" lon="5.89564">
        <ele>1793.4580078125</ele>
        <time>2017-12-23T10:48:14Z</time>
      </trkpt>
      <trkpt lat="45.35718" lon="5.8957">
        <ele>1794.4580078125</ele>
        <time>2017-12-23T10:48:19Z</time>
      </trkpt>
      <trkpt lat="45.3572" lon="5.89578">
        <ele>1797.4580078125</ele>
        <time>2017-12-23T10:48:23Z</time>
      </trkpt>
      <trkpt lat="45.35723" lon="5.89584">
        <ele>1799.4580078125</ele>
        <time>2017-12-23T10:48:28Z</time>
      </trkpt>
      <trkpt lat="45.35727" lon="5.89589">
        <ele>1798.4580078125</ele>
        <time>2017-12-23T10:48:33Z</time>
      </trkpt>
      <trkpt lat="45.35731" lon="5.89594">
        <ele>1795.4580078125</ele>
        <time>2017-12-23T10:48:38Z</time>
      </trkpt>
      <trkpt lat="45.35735" lon="5.89599">
        <ele>1796.4580078125</ele>
        <time>2017-12-23T10:48:42Z</time>
      </trkpt>
      <trkpt lat="45.35735" lon="5.89607">
        <ele>1800.4580078125</ele>
        <time>2017-12-23T10:48:45Z</time>
      </trkpt>
      <trkpt lat="45.35737" lon="5.89614">
        <ele>1800.4580078125</ele>
        <time>2017-12-23T10:48:50Z</time>
      </trkpt>
      <trkpt lat="45.35741" lon="5.89619">
        <ele>1798.4580078125</ele>
        <time>2017-12-23T10:48:55Z</time>
      </trkpt>
      <trkpt lat="45.35742" lon="5.89627">
        <ele>1799.4580078125</ele>
        <time>2017-12-23T10:48:59Z</time>
      </trkpt>
      <trkpt lat="45.35743" lon="5.89633">
        <ele>1802.4580078125</ele>
        <time>2017-12-23T10:49:02Z</time>
      </trkpt>
      <trkpt lat="45.35741" lon="5.8964">
        <ele>1804.4580078125</ele>
        <time>2017-12-23T10:49:05Z</time>
      </trkpt>
      <trkpt lat="45.35743" lon="5.89647">
        <ele>1805.4580078125</ele>
        <time>2017-12-23T10:49:09Z</time>
      </trkpt>
      <trkpt lat="45.35742" lon="5.89654">
        <ele>1807.4580078125</ele>
        <time>2017-12-23T10:49:12Z</time>
      </trkpt>
      <trkpt lat="45.35745" lon="5.8966">
        <ele>1805.4580078125</ele>
        <time>2017-12-23T10:49:16Z</time>
      </trkpt>
      <trkpt lat="45.35745" lon="5.89667">
        <ele>1806.4580078125</ele>
        <time>2017-12-23T10:49:20Z</time>
      </trkpt>
      <trkpt lat="45.35745" lon="5.89675">
        <ele>1806.4580078125</ele>
        <time>2017-12-23T10:49:23Z</time>
      </trkpt>
      <trkpt lat="45.35746" lon="5.89682">
        <ele>1807.4580078125</ele>
        <time>2017-12-23T10:49:27Z</time>
      </trkpt>
      <trkpt lat="45.35747" lon="5.89689">
        <ele>1809.4580078125</ele>
        <time>2017-12-23T10:49:31Z</time>
      </trkpt>
      <trkpt lat="45.35746" lon="5.89695">
        <ele>1810.4580078125</ele>
        <time>2017-12-23T10:49:35Z</time>
      </trkpt>
      <trkpt lat="45.35744" lon="5.89702">
        <ele>1810.4580078125</ele>
        <time>2017-12-23T10:49:39Z</time>
      </trkpt>
      <trkpt lat="45.35742" lon="5.8971">
        <ele>1811.4580078125</ele>
        <time>2017-12-23T10:49:43Z</time>
      </trkpt>
      <trkpt lat="45.35741" lon="5.89718">
        <ele>1811.4580078125</ele>
        <time>2017-12-23T10:49:46Z</time>
      </trkpt>
      <trkpt lat="45.3574" lon="5.89725">
        <ele>1813.4580078125</ele>
        <time>2017-12-23T10:49:50Z</time>
      </trkpt>
      <trkpt lat="45.35738" lon="5.89732">
        <ele>1814.4580078125</ele>
        <time>2017-12-23T10:49:54Z</time>
      </trkpt>
      <trkpt lat="45.35736" lon="5.8974">
        <ele>1815.4580078125</ele>
        <time>2017-12-23T10:49:58Z</time>
      </trkpt>
      <trkpt lat="45.35736" lon="5.89747">
        <ele>1815.4580078125</ele>
        <time>2017-12-23T10:50:02Z</time>
      </trkpt>
      <trkpt lat="45.35735" lon="5.89753">
        <ele>1818.4580078125</ele>
        <time>2017-12-23T10:50:05Z</time>
      </trkpt>
      <trkpt lat="45.35737" lon="5.8976">
        <ele>1817.4580078125</ele>
        <time>2017-12-23T10:50:09Z</time>
      </trkpt>
      <trkpt lat="45.35738" lon="5.89769">
        <ele>1818.4580078125</ele>
        <time>2017-12-23T10:50:12Z</time>
      </trkpt>
      <trkpt lat="45.3574" lon="5.89774">
        <ele>1819.4580078125</ele>
        <time>2017-12-23T10:50:15Z</time>
      </trkpt>
      <trkpt lat="45.35745" lon="5.89779">
        <ele>1818.4580078125</ele>
        <time>2017-12-23T10:50:19Z</time>
      </trkpt>
      <trkpt lat="45.35749" lon="5.89785">
        <ele>1819.4580078125</ele>
        <time>2017-12-23T10:50:22Z</time>
      </trkpt>
      <trkpt lat="45.35752" lon="5.8979">
        <ele>1820.4580078125</ele>
        <time>2017-12-23T10:50:26Z</time>
      </trkpt>
      <trkpt lat="45.35757" lon="5.89794">
        <ele>1821.4580078125</ele>
        <time>2017-12-23T10:50:30Z</time>
      </trkpt>
      <trkpt lat="45.3576" lon="5.89798">
        <ele>1822.4580078125</ele>
        <time>2017-12-23T10:50:34Z</time>
      </trkpt>
      <trkpt lat="45.35764" lon="5.89804">
        <ele>1819.4580078125</ele>
        <time>2017-12-23T10:52:11Z</time>
      </trkpt>
      <trkpt lat="45.3577" lon="5.89804">
        <ele>1816.4580078125</ele>
        <time>2017-12-23T10:52:14Z</time>
      </trkpt>
      <trkpt lat="45.35774" lon="5.89802">
        <ele>1814.4580078125</ele>
        <time>2017-12-23T10:52:16Z</time>
      </trkpt>
      <trkpt lat="45.35782" lon="5.89797">
        <ele>1812.4580078125</ele>
        <time>2017-12-23T10:52:19Z</time>
      </trkpt>
      <trkpt lat="45.35787" lon="5.89789">
        <ele>1812.4580078125</ele>
        <time>2017-12-23T10:52:21Z</time>
      </trkpt>
      <trkpt lat="45.3579" lon="5.8978">
        <ele>1811.4580078125</ele>
        <time>2017-12-23T10:52:23Z</time>
      </trkpt>
      <trkpt lat="45.35794" lon="5.89774">
        <ele>1811.4580078125</ele>
        <time>2017-12-23T10:52:27Z</time>
      </trkpt>
      <trkpt lat="45.35798" lon="5.89763">
        <ele>1810.4580078125</ele>
        <time>2017-12-23T10:52:29Z</time>
      </trkpt>
      <trkpt lat="45.35803" lon="5.89748">
        <ele>1808.4580078125</ele>
        <time>2017-12-23T10:52:32Z</time>
      </trkpt>
      <trkpt lat="45.35808" lon="5.89747">
        <ele>1807.4580078125</ele>
        <time>2017-12-23T10:52:38Z</time>
      </trkpt>
      <trkpt lat="45.35811" lon="5.89753">
        <ele>1805.4580078125</ele>
        <time>2017-12-23T10:52:41Z</time>
      </trkpt>
      <trkpt lat="45.35809" lon="5.89763">
        <ele>1804.4580078125</ele>
        <time>2017-12-23T10:52:43Z</time>
      </trkpt>
      <trkpt lat="45.35814" lon="5.89768">
        <ele>1801.4580078125</ele>
        <time>2017-12-23T10:52:46Z</time>
      </trkpt>
      <trkpt lat="45.35815" lon="5.89775">
        <ele>1799.4580078125</ele>
        <time>2017-12-23T10:52:48Z</time>
      </trkpt>
      <trkpt lat="45.35815" lon="5.89781">
        <ele>1795.4580078125</ele>
        <time>2017-12-23T10:52:52Z</time>
      </trkpt>
      <trkpt lat="45.35821" lon="5.89784">
        <ele>1788.4580078125</ele>
        <time>2017-12-23T10:52:59Z</time>
      </trkpt>
      <trkpt lat="45.35822" lon="5.89791">
        <ele>1786.4580078125</ele>
        <time>2017-12-23T10:53:04Z</time>
      </trkpt>
      <trkpt lat="45.35821" lon="5.89798">
        <ele>1785.4580078125</ele>
        <time>2017-12-23T10:53:09Z</time>
      </trkpt>
      <trkpt lat="45.35822" lon="5.89806">
        <ele>1781.4580078125</ele>
        <time>2017-12-23T10:53:12Z</time>
      </trkpt>
      <trkpt lat="45.35823" lon="5.89813">
        <ele>1775.4580078125</ele>
        <time>2017-12-23T10:53:18Z</time>
      </trkpt>
      <trkpt lat="45.35823" lon="5.8982">
        <ele>1773.4580078125</ele>
        <time>2017-12-23T10:53:21Z</time>
      </trkpt>
      <trkpt lat="45.3582" lon="5.89826">
        <ele>1770.4580078125</ele>
        <time>2017-12-23T10:53:23Z</time>
      </trkpt>
      <trkpt lat="45.35813" lon="5.89836">
        <ele>1768.4580078125</ele>
        <time>2017-12-23T10:53:26Z</time>
      </trkpt>
      <trkpt lat="45.35813" lon="5.89845">
        <ele>1764.4580078125</ele>
        <time>2017-12-23T10:53:30Z</time>
      </trkpt>
      <trkpt lat="45.35809" lon="5.8985">
        <ele>1763.4580078125</ele>
        <time>2017-12-23T10:53:32Z</time>
      </trkpt>
      <trkpt lat="45.35814" lon="5.89848">
        <ele>1761.4580078125</ele>
        <time>2017-12-23T10:53:34Z</time>
      </trkpt>
      <trkpt lat="45.35813" lon="5.89855">
        <ele>1751.4580078125</ele>
        <time>2017-12-23T10:53:38Z</time>
      </trkpt>
      <trkpt lat="45.35815" lon="5.89863">
        <ele>1749.4580078125</ele>
        <time>2017-12-23T10:53:40Z</time>
      </trkpt>
      <trkpt lat="45.35821" lon="5.89857">
        <ele>1747.4580078125</ele>
        <time>2017-12-23T10:53:42Z</time>
      </trkpt>
      <trkpt lat="45.35827" lon="5.89858">
        <ele>1746.4580078125</ele>
        <time>2017-12-23T10:53:44Z</time>
      </trkpt>
      <trkpt lat="45.35825" lon="5.89865">
        <ele>1743.4580078125</ele>
        <time>2017-12-23T10:53:46Z</time>
      </trkpt>
      <trkpt lat="45.35822" lon="5.89875">
        <ele>1740.4580078125</ele>
        <time>2017-12-23T10:53:48Z</time>
      </trkpt>
      <trkpt lat="45.35828" lon="5.89878">
        <ele>1737.4580078125</ele>
        <time>2017-12-23T10:53:50Z</time>
      </trkpt>
      <trkpt lat="45.35832" lon="5.89885">
        <ele>1734.4580078125</ele>
        <time>2017-12-23T10:53:52Z</time>
      </trkpt>
      <trkpt lat="45.35836" lon="5.89892">
        <ele>1732.4580078125</ele>
        <time>2017-12-23T10:53:54Z</time>
      </trkpt>
      <trkpt lat="45.35832" lon="5.89899">
        <ele>1731.4580078125</ele>
        <time>2017-12-23T10:53:56Z</time>
      </trkpt>
      <trkpt lat="45.35834" lon="5.89905">
        <ele>1729.4580078125</ele>
        <time>2017-12-23T10:53:58Z</time>
      </trkpt>
      <trkpt lat="45.35838" lon="5.89906">
        <ele>1723.4580078125</ele>
        <time>2017-12-23T10:54:00Z</time>
      </trkpt>
      <trkpt lat="45.35836" lon="5.89912">
        <ele>1721.4580078125</ele>
        <time>2017-12-23T10:54:02Z</time>
      </trkpt>
      <trkpt lat="45.35839" lon="5.89919">
        <ele>1717.4580078125</ele>
        <time>2017-12-23T10:54:04Z</time>
      </trkpt>
      <trkpt lat="45.35846" lon="5.89924">
        <ele>1714.4580078125</ele>
        <time>2017-12-23T10:54:06Z</time>
      </trkpt>
      <trkpt lat="45.35839" lon="5.89935">
        <ele>1711.4580078125</ele>
        <time>2017-12-23T10:54:09Z</time>
      </trkpt>
      <trkpt lat="45.35837" lon="5.89943">
        <ele>1706.4580078125</ele>
        <time>2017-12-23T10:54:14Z</time>
      </trkpt>
      <trkpt lat="45.35837" lon="5.89949">
        <ele>1699.4580078125</ele>
        <time>2017-12-23T10:54:21Z</time>
      </trkpt>
      <trkpt lat="45.35836" lon="5.89957">
        <ele>1695.4580078125</ele>
        <time>2017-12-23T10:54:24Z</time>
      </trkpt>
      <trkpt lat="45.35836" lon="5.89967">
        <ele>1690.4580078125</ele>
        <time>2017-12-23T10:54:27Z</time>
      </trkpt>
      <trkpt lat="45.35836" lon="5.89974">
        <ele>1688.4580078125</ele>
        <time>2017-12-23T10:54:29Z</time>
      </trkpt>
      <trkpt lat="45.35836" lon="5.89983">
        <ele>1685.4580078125</ele>
        <time>2017-12-23T10:54:31Z</time>
      </trkpt>
      <trkpt lat="45.35837" lon="5.89991">
        <ele>1683.4580078125</ele>
        <time>2017-12-23T10:54:33Z</time>
      </trkpt>
      <trkpt lat="45.35831" lon="5.89998">
        <ele>1681.4580078125</ele>
        <time>2017-12-23T10:54:35Z</time>
      </trkpt>
      <trkpt lat="45.35835" lon="5.90003">
        <ele>1677.4580078125</ele>
        <time>2017-12-23T10:54:37Z</time>
      </trkpt>
      <trkpt lat="45.35834" lon="5.90012">
        <ele>1674.4580078125</ele>
        <time>2017-12-23T10:54:40Z</time>
      </trkpt>
      <trkpt lat="45.35836" lon="5.90019">
        <ele>1673.4580078125</ele>
        <time>2017-12-23T10:54:42Z</time>
      </trkpt>
      <trkpt lat="45.35829" lon="5.90022">
        <ele>1671.4580078125</ele>
        <time>2017-12-23T10:54:44Z</time>
      </trkpt>
      <trkpt lat="45.35832" lon="5.90028">
        <ele>1666.4580078125</ele>
        <time>2017-12-23T10:54:47Z</time>
      </trkpt>
      <trkpt lat="45.35829" lon="5.90035">
        <ele>1662.4580078125</ele>
        <time>2017-12-23T10:54:49Z</time>
      </trkpt>
      <trkpt lat="45.35829" lon="5.90043">
        <ele>1656.458984375</ele>
        <time>2017-12-23T10:54:52Z</time>
      </trkpt>
      <trkpt lat="45.35829" lon="5.90051">
        <ele>1654.458984375</ele>
        <time>2017-12-23T10:54:54Z</time>
      </trkpt>
      <trkpt lat="45.35826" lon="5.90059">
        <ele>1647.458984375</ele>
        <time>2017-12-23T10:54:58Z</time>
      </trkpt>
      <trkpt lat="45.35826" lon="5.90069">
        <ele>1644.458984375</ele>
        <time>2017-12-23T10:55:01Z</time>
      </trkpt>
      <trkpt lat="45.35824" lon="5.90077">
        <ele>1641.458984375</ele>
        <time>2017-12-23T10:55:04Z</time>
      </trkpt>
      <trkpt lat="45.35825" lon="5.90085">
        <ele>1632.458984375</ele>
        <time>2017-12-23T10:55:08Z</time>
      </trkpt>
      <trkpt lat="45.35823" lon="5.90092">
        <ele>1627.458984375</ele>
        <time>2017-12-23T10:55:11Z</time>
      </trkpt>
      <trkpt lat="45.35818" lon="5.90096">
        <ele>1624.458984375</ele>
        <time>2017-12-23T10:55:13Z</time>
      </trkpt>
      <trkpt lat="45.35813" lon="5.90096">
        <ele>1619.458984375</ele>
        <time>2017-12-23T10:55:15Z</time>
      </trkpt>
      <trkpt lat="45.35811" lon="5.90103">
        <ele>1613.458984375</ele>
        <time>2017-12-23T10:55:21Z</time>
      </trkpt>
      <trkpt lat="45.35809" lon="5.9011">
        <ele>1611.458984375</ele>
        <time>2017-12-23T10:55:23Z</time>
      </trkpt>
      <trkpt lat="45.35805" lon="5.90115">
        <ele>1609.458984375</ele>
        <time>2017-12-23T10:55:26Z</time>
      </trkpt>
      <trkpt lat="45.35802" lon="5.90124">
        <ele>1606.458984375</ele>
        <time>2017-12-23T10:55:30Z</time>
      </trkpt>
      <trkpt lat="45.35803" lon="5.90131">
        <ele>1602.458984375</ele>
        <time>2017-12-23T10:55:35Z</time>
      </trkpt>
      <trkpt lat="45.35805" lon="5.90138">
        <ele>1599.458984375</ele>
        <time>2017-12-23T10:55:37Z</time>
      </trkpt>
      <trkpt lat="45.35799" lon="5.90135">
        <ele>1595.458984375</ele>
        <time>2017-12-23T10:55:42Z</time>
      </trkpt>
      <trkpt lat="45.35796" lon="5.9014">
        <ele>1594.458984375</ele>
        <time>2017-12-23T10:55:48Z</time>
      </trkpt>
      <trkpt lat="45.35792" lon="5.90147">
        <ele>1595.458984375</ele>
        <time>2017-12-23T10:55:52Z</time>
      </trkpt>
      <trkpt lat="45.35792" lon="5.90154">
        <ele>1590.458984375</ele>
        <time>2017-12-23T10:55:55Z</time>
      </trkpt>
      <trkpt lat="45.35794" lon="5.9016">
        <ele>1588.458984375</ele>
        <time>2017-12-23T10:55:57Z</time>
      </trkpt>
      <trkpt lat="45.35793" lon="5.90167">
        <ele>1585.458984375</ele>
        <time>2017-12-23T10:56:02Z</time>
      </trkpt>
      <trkpt lat="45.35787" lon="5.90165">
        <ele>1581.458984375</ele>
        <time>2017-12-23T10:56:06Z</time>
      </trkpt>
      <trkpt lat="45.35786" lon="5.90174">
        <ele>1577.458984375</ele>
        <time>2017-12-23T10:56:09Z</time>
      </trkpt>
      <trkpt lat="45.35782" lon="5.90178">
        <ele>1576.458984375</ele>
        <time>2017-12-23T10:56:13Z</time>
      </trkpt>
      <trkpt lat="45.35778" lon="5.90183">
        <ele>1569.458984375</ele>
        <time>2017-12-23T10:56:18Z</time>
      </trkpt>
      <trkpt lat="45.35769" lon="5.90181">
        <ele>1566.458984375</ele>
        <time>2017-12-23T10:56:23Z</time>
      </trkpt>
      <trkpt lat="45.35763" lon="5.90177">
        <ele>1563.458984375</ele>
        <time>2017-12-23T10:56:25Z</time>
      </trkpt>
      <trkpt lat="45.35759" lon="5.9018">
        <ele>1564.458984375</ele>
        <time>2017-12-23T10:56:29Z</time>
      </trkpt>
      <trkpt lat="45.35751" lon="5.9018">
        <ele>1565.458984375</ele>
        <time>2017-12-23T10:56:34Z</time>
      </trkpt>
      <trkpt lat="45.35746" lon="5.90179">
        <ele>1562.458984375</ele>
        <time>2017-12-23T10:56:36Z</time>
      </trkpt>
      <trkpt lat="45.35741" lon="5.90176">
        <ele>1558.458984375</ele>
        <time>2017-12-23T10:56:39Z</time>
      </trkpt>
      <trkpt lat="45.35736" lon="5.90174">
        <ele>1556.4580078125</ele>
        <time>2017-12-23T10:56:41Z</time>
      </trkpt>
      <trkpt lat="45.3573" lon="5.90175">
        <ele>1557.4580078125</ele>
        <time>2017-12-23T10:56:43Z</time>
      </trkpt>
      <trkpt lat="45.35724" lon="5.90174">
        <ele>1558.4580078125</ele>
        <time>2017-12-23T10:56:46Z</time>
      </trkpt>
      <trkpt lat="45.35716" lon="5.90174">
        <ele>1557.4580078125</ele>
        <time>2017-12-23T10:56:48Z</time>
      </trkpt>
      <trkpt lat="45.3571" lon="5.90172">
        <ele>1556.4580078125</ele>
        <time>2017-12-23T10:56:50Z</time>
      </trkpt>
      <trkpt lat="45.35708" lon="5.90178">
        <ele>1553.4580078125</ele>
        <time>2017-12-23T10:56:56Z</time>
      </trkpt>
      <trkpt lat="45.35713" lon="5.90185">
        <ele>1550.4580078125</ele>
        <time>2017-12-23T10:56:59Z</time>
      </trkpt>
      <trkpt lat="45.35716" lon="5.90191">
        <ele>1547.4580078125</ele>
        <time>2017-12-23T10:57:01Z</time>
      </trkpt>
      <trkpt lat="45.35713" lon="5.90197">
        <ele>1547.4580078125</ele>
        <time>2017-12-23T10:57:04Z</time>
      </trkpt>
      <trkpt lat="45.35704" lon="5.90197">
        <ele>1544.4580078125</ele>
        <time>2017-12-23T10:57:07Z</time>
      </trkpt>
      <trkpt lat="45.35698" lon="5.90197">
        <ele>1542.4580078125</ele>
        <time>2017-12-23T10:57:09Z</time>
      </trkpt>
      <trkpt lat="45.35693" lon="5.90196">
        <ele>1541.4580078125</ele>
        <time>2017-12-23T10:57:11Z</time>
      </trkpt>
      <trkpt lat="45.35688" lon="5.90203">
        <ele>1537.4580078125</ele>
        <time>2017-12-23T10:57:15Z</time>
      </trkpt>
      <trkpt lat="45.3568" lon="5.90202">
        <ele>1534.4580078125</ele>
        <time>2017-12-23T10:57:17Z</time>
      </trkpt>
      <trkpt lat="45.35676" lon="5.90206">
        <ele>1530.4580078125</ele>
        <time>2017-12-23T10:57:21Z</time>
      </trkpt>
      <trkpt lat="45.35678" lon="5.90215">
        <ele>1527.4580078125</ele>
        <time>2017-12-23T10:57:28Z</time>
      </trkpt>
      <trkpt lat="45.35683" lon="5.90222">
        <ele>1521.4580078125</ele>
        <time>2017-12-23T10:57:31Z</time>
      </trkpt>
      <trkpt lat="45.35684" lon="5.90228">
        <ele>1520.4580078125</ele>
        <time>2017-12-23T10:57:34Z</time>
      </trkpt>
      <trkpt lat="45.35681" lon="5.90232">
        <ele>1516.4580078125</ele>
        <time>2017-12-23T10:57:41Z</time>
      </trkpt>
      <trkpt lat="45.35675" lon="5.90233">
        <ele>1516.4580078125</ele>
        <time>2017-12-23T10:57:43Z</time>
      </trkpt>
      <trkpt lat="45.35675" lon="5.90242">
        <ele>1514.4580078125</ele>
        <time>2017-12-23T10:57:54Z</time>
      </trkpt>
      <trkpt lat="45.35678" lon="5.90248">
        <ele>1513.4580078125</ele>
        <time>2017-12-23T10:57:56Z</time>
      </trkpt>
      <trkpt lat="45.35677" lon="5.90255">
        <ele>1510.4580078125</ele>
        <time>2017-12-23T10:58:00Z</time>
      </trkpt>
      <trkpt lat="45.35672" lon="5.90253">
        <ele>1506.4580078125</ele>
        <time>2017-12-23T10:58:03Z</time>
      </trkpt>
      <trkpt lat="45.35649" lon="5.90254">
        <ele>1503.4580078125</ele>
        <time>2017-12-23T10:58:15Z</time>
      </trkpt>
      <trkpt lat="45.35628" lon="5.9026">
        <ele>1500.4580078125</ele>
        <time>2017-12-23T10:58:18Z</time>
      </trkpt>
      <trkpt lat="45.3562" lon="5.90258">
        <ele>1501.4580078125</ele>
        <time>2017-12-23T10:58:20Z</time>
      </trkpt>
      <trkpt lat="45.3561" lon="5.90259">
        <ele>1500.4580078125</ele>
        <time>2017-12-23T10:58:22Z</time>
      </trkpt>
      <trkpt lat="45.35598" lon="5.90255">
        <ele>1498.4580078125</ele>
        <time>2017-12-23T10:58:24Z</time>
      </trkpt>
      <trkpt lat="45.35591" lon="5.90255">
        <ele>1492.4580078125</ele>
        <time>2017-12-23T10:58:27Z</time>
      </trkpt>
      <trkpt lat="45.35583" lon="5.90255">
        <ele>1491.4580078125</ele>
        <time>2017-12-23T10:58:29Z</time>
      </trkpt>
      <trkpt lat="45.35577" lon="5.90255">
        <ele>1490.4580078125</ele>
        <time>2017-12-23T10:58:31Z</time>
      </trkpt>
      <trkpt lat="45.3557" lon="5.90255">
        <ele>1487.4580078125</ele>
        <time>2017-12-23T10:58:34Z</time>
      </trkpt>
      <trkpt lat="45.35565" lon="5.90254">
        <ele>1480.4580078125</ele>
        <time>2017-12-23T10:58:37Z</time>
      </trkpt>
      <trkpt lat="45.35557" lon="5.90255">
        <ele>1479.4580078125</ele>
        <time>2017-12-23T10:58:40Z</time>
      </trkpt>
      <trkpt lat="45.35552" lon="5.90253">
        <ele>1226.4580078125</ele>
        <time>2017-12-23T10:58:42Z</time>
      </trkpt>
      <trkpt lat="45.35546" lon="5.90255">
        <ele>1313.4580078125</ele>
        <time>2017-12-23T10:58:44Z</time>
      </trkpt>
      <trkpt lat="45.35541" lon="5.9026">
        <ele>1365.4580078125</ele>
        <time>2017-12-23T10:58:46Z</time>
      </trkpt>
      <trkpt lat="45.35533" lon="5.90267">
        <ele>1389.4580078125</ele>
        <time>2017-12-23T10:58:47Z</time>
      </trkpt>
      <trkpt lat="45.35523" lon="5.90273">
        <ele>1419.4580078125</ele>
        <time>2017-12-23T10:58:49Z</time>
      </trkpt>
      <trkpt lat="45.35517" lon="5.90275">
        <ele>1438.4580078125</ele>
        <time>2017-12-23T10:58:51Z</time>
      </trkpt>
      <trkpt lat="45.35513" lon="5.90284">
        <ele>1440.4580078125</ele>
        <time>2017-12-23T10:58:53Z</time>
      </trkpt>
      <trkpt lat="45.35518" lon="5.90288">
        <ele>1445.4580078125</ele>
        <time>2017-12-23T10:58:55Z</time>
      </trkpt>
      <trkpt lat="45.35522" lon="5.90293">
        <ele>1451.4580078125</ele>
        <time>2017-12-23T10:58:58Z</time>
      </trkpt>
      <trkpt lat="45.35522" lon="5.903">
        <ele>1448.4580078125</ele>
        <time>2017-12-23T10:59:00Z</time>
      </trkpt>
      <trkpt lat="45.35519" lon="5.90307">
        <ele>1449.4580078125</ele>
        <time>2017-12-23T10:59:04Z</time>
      </trkpt>
      <trkpt lat="45.35518" lon="5.90314">
        <ele>1448.4580078125</ele>
        <time>2017-12-23T10:59:07Z</time>
      </trkpt>
      <trkpt lat="45.35513" lon="5.9032">
        <ele>1448.4580078125</ele>
        <time>2017-12-23T10:59:09Z</time>
      </trkpt>
      <trkpt lat="45.35509" lon="5.90327">
        <ele>1446.4580078125</ele>
        <time>2017-12-23T10:59:11Z</time>
      </trkpt>
      <trkpt lat="45.35513" lon="5.90334">
        <ele>1441.4580078125</ele>
        <time>2017-12-23T10:59:15Z</time>
      </trkpt>
      <trkpt lat="45.35517" lon="5.90338">
        <ele>1439.4580078125</ele>
        <time>2017-12-23T10:59:22Z</time>
      </trkpt>
      <trkpt lat="45.35524" lon="5.90343">
        <ele>1437.4580078125</ele>
        <time>2017-12-23T10:59:25Z</time>
      </trkpt>
      <trkpt lat="45.35528" lon="5.90343">
        <ele>1435.4580078125</ele>
        <time>2017-12-23T10:59:29Z</time>
      </trkpt>
      <trkpt lat="45.35532" lon="5.90346">
        <ele>1434.4580078125</ele>
        <time>2017-12-23T10:59:33Z</time>
      </trkpt>
      <trkpt lat="45.35538" lon="5.9035">
        <ele>1431.4580078125</ele>
        <time>2017-12-23T10:59:35Z</time>
      </trkpt>
      <trkpt lat="45.35548" lon="5.90357">
        <ele>1431.4580078125</ele>
        <time>2017-12-23T10:59:37Z</time>
      </trkpt>
      <trkpt lat="45.35556" lon="5.90363">
        <ele>1430.4580078125</ele>
        <time>2017-12-23T10:59:39Z</time>
      </trkpt>
      <trkpt lat="45.35564" lon="5.90368">
        <ele>1428.4580078125</ele>
        <time>2017-12-23T10:59:41Z</time>
      </trkpt>
      <trkpt lat="45.35573" lon="5.90375">
        <ele>1427.4580078125</ele>
        <time>2017-12-23T10:59:43Z</time>
      </trkpt>
      <trkpt lat="45.35587" lon="5.90382">
        <ele>1425.4580078125</ele>
        <time>2017-12-23T10:59:45Z</time>
      </trkpt>
      <trkpt lat="45.35596" lon="5.90394">
        <ele>1424.4580078125</ele>
        <time>2017-12-23T10:59:47Z</time>
      </trkpt>
      <trkpt lat="45.35605" lon="5.90407">
        <ele>1423.458984375</ele>
        <time>2017-12-23T10:59:49Z</time>
      </trkpt>
      <trkpt lat="45.35609" lon="5.90412">
        <ele>1422.458984375</ele>
        <time>2017-12-23T10:59:50Z</time>
      </trkpt>
      <trkpt lat="45.35618" lon="5.9042">
        <ele>1419.458984375</ele>
        <time>2017-12-23T10:59:52Z</time>
      </trkpt>
      <trkpt lat="45.35625" lon="5.90438">
        <ele>1421.458984375</ele>
        <time>2017-12-23T10:59:54Z</time>
      </trkpt>
      <trkpt lat="45.35652" lon="5.90526">
        <ele>1400.458984375</ele>
        <time>2017-12-23T11:00:05Z</time>
      </trkpt>
      <trkpt lat="45.35672" lon="5.90578">
        <ele>1362.458984375</ele>
        <time>2017-12-23T11:00:15Z</time>
      </trkpt>
      <trkpt lat="45.35677" lon="5.90585">
        <ele>1367.458984375</ele>
        <time>2017-12-23T11:00:18Z</time>
      </trkpt>
      <trkpt lat="45.35693" lon="5.90598">
        <ele>1368.458984375</ele>
        <time>2017-12-23T11:00:22Z</time>
      </trkpt>
      <trkpt lat="45.35698" lon="5.90606">
        <ele>1369.458984375</ele>
        <time>2017-12-23T11:00:24Z</time>
      </trkpt>
      <trkpt lat="45.35706" lon="5.90616">
        <ele>1369.458984375</ele>
        <time>2017-12-23T11:00:26Z</time>
      </trkpt>
      <trkpt lat="45.35716" lon="5.90639">
        <ele>1367.458984375</ele>
        <time>2017-12-23T11:00:28Z</time>
      </trkpt>
      <trkpt lat="45.35717" lon="5.90647">
        <ele>1366.458984375</ele>
        <time>2017-12-23T11:00:29Z</time>
      </trkpt>
      <trkpt lat="45.35726" lon="5.90666">
        <ele>1364.458984375</ele>
        <time>2017-12-23T11:00:33Z</time>
      </trkpt>
      <trkpt lat="45.35729" lon="5.90671">
        <ele>1362.458984375</ele>
        <time>2017-12-23T11:00:34Z</time>
      </trkpt>
      <trkpt lat="45.35731" lon="5.90683">
        <ele>1362.458984375</ele>
        <time>2017-12-23T11:00:36Z</time>
      </trkpt>
      <trkpt lat="45.35737" lon="5.90698">
        <ele>1357.458984375</ele>
        <time>2017-12-23T11:00:38Z</time>
      </trkpt>
      <trkpt lat="45.35745" lon="5.90711">
        <ele>1355.458984375</ele>
        <time>2017-12-23T11:00:40Z</time>
      </trkpt>
      <trkpt lat="45.35751" lon="5.90721">
        <ele>1354.458984375</ele>
        <time>2017-12-23T11:00:42Z</time>
      </trkpt>
      <trkpt lat="45.35756" lon="5.90734">
        <ele>1351.458984375</ele>
        <time>2017-12-23T11:00:44Z</time>
      </trkpt>
      <trkpt lat="45.35762" lon="5.90741">
        <ele>1346.458984375</ele>
        <time>2017-12-23T11:00:46Z</time>
      </trkpt>
      <trkpt lat="45.3577" lon="5.90749">
        <ele>1342.458984375</ele>
        <time>2017-12-23T11:00:48Z</time>
      </trkpt>
      <trkpt lat="45.35783" lon="5.90755">
        <ele>1338.458984375</ele>
        <time>2017-12-23T11:00:50Z</time>
      </trkpt>
      <trkpt lat="45.35792" lon="5.90764">
        <ele>1333.458984375</ele>
        <time>2017-12-23T11:00:53Z</time>
      </trkpt>
      <trkpt lat="45.35798" lon="5.90769">
        <ele>1333.458984375</ele>
        <time>2017-12-23T11:00:57Z</time>
      </trkpt>
      <trkpt lat="45.35804" lon="5.90773">
        <ele>1333.458984375</ele>
        <time>2017-12-23T11:00:59Z</time>
      </trkpt>
      <trkpt lat="45.35803" lon="5.90781">
        <ele>1333.458984375</ele>
        <time>2017-12-23T11:01:01Z</time>
      </trkpt>
      <trkpt lat="45.35803" lon="5.90788">
        <ele>1333.458984375</ele>
        <time>2017-12-23T11:01:02Z</time>
      </trkpt>
      <trkpt lat="45.35802" lon="5.90795">
        <ele>1330.458984375</ele>
        <time>2017-12-23T11:01:29Z</time>
      </trkpt>
      <trkpt lat="45.35801" lon="5.90807">
        <ele>1329.458984375</ele>
        <time>2017-12-23T11:01:32Z</time>
      </trkpt>
      <trkpt lat="45.35799" lon="5.90816">
        <ele>1328.458984375</ele>
        <time>2017-12-23T11:01:34Z</time>
      </trkpt>
      <trkpt lat="45.35795" lon="5.90827">
        <ele>1326.458984375</ele>
        <time>2017-12-23T11:01:36Z</time>
      </trkpt>
      <trkpt lat="45.3579" lon="5.90836">
        <ele>1324.458984375</ele>
        <time>2017-12-23T11:01:38Z</time>
      </trkpt>
      <trkpt lat="45.35791" lon="5.90847">
        <ele>1324.458984375</ele>
        <time>2017-12-23T11:01:41Z</time>
      </trkpt>
      <trkpt lat="45.35793" lon="5.90856">
        <ele>1319.4599609375</ele>
        <time>2017-12-23T11:01:43Z</time>
      </trkpt>
      <trkpt lat="45.35794" lon="5.90866">
        <ele>1319.4599609375</ele>
        <time>2017-12-23T11:01:45Z</time>
      </trkpt>
      <trkpt lat="45.35793" lon="5.90875">
        <ele>1316.4599609375</ele>
        <time>2017-12-23T11:01:47Z</time>
      </trkpt>
      <trkpt lat="45.35798" lon="5.90887">
        <ele>1314.4599609375</ele>
        <time>2017-12-23T11:01:49Z</time>
      </trkpt>
      <trkpt lat="45.35805" lon="5.90904">
        <ele>1311.4599609375</ele>
        <time>2017-12-23T11:01:52Z</time>
      </trkpt>
      <trkpt lat="45.35798" lon="5.909">
        <ele>1309.4599609375</ele>
        <time>2017-12-23T11:01:54Z</time>
      </trkpt>
      <trkpt lat="45.35791" lon="5.90892">
        <ele>1307.4599609375</ele>
        <time>2017-12-23T11:01:56Z</time>
      </trkpt>
      <trkpt lat="45.35775" lon="5.90887">
        <ele>1303.4599609375</ele>
        <time>2017-12-23T11:01:59Z</time>
      </trkpt>
      <trkpt lat="45.35764" lon="5.90883">
        <ele>1301.458984375</ele>
        <time>2017-12-23T11:02:01Z</time>
      </trkpt>
      <trkpt lat="45.3576" lon="5.9088">
        <ele>1300.458984375</ele>
        <time>2017-12-23T11:02:02Z</time>
      </trkpt>
      <trkpt lat="45.35754" lon="5.9088">
        <ele>1299.458984375</ele>
        <time>2017-12-23T11:02:04Z</time>
      </trkpt>
      <trkpt lat="45.35749" lon="5.90882">
        <ele>1297.458984375</ele>
        <time>2017-12-23T11:02:06Z</time>
      </trkpt>
      <trkpt lat="45.3575" lon="5.9089">
        <ele>1295.458984375</ele>
        <time>2017-12-23T11:02:08Z</time>
      </trkpt>
      <trkpt lat="45.35749" lon="5.90898">
        <ele>1290.458984375</ele>
        <time>2017-12-23T11:02:11Z</time>
      </trkpt>
      <trkpt lat="45.35743" lon="5.90901">
        <ele>1289.458984375</ele>
        <time>2017-12-23T11:02:14Z</time>
      </trkpt>
      <trkpt lat="45.35731" lon="5.90901">
        <ele>1286.458984375</ele>
        <time>2017-12-23T11:02:16Z</time>
      </trkpt>
      <trkpt lat="45.35721" lon="5.90892">
        <ele>1286.458984375</ele>
        <time>2017-12-23T11:02:18Z</time>
      </trkpt>
      <trkpt lat="45.35708" lon="5.90886">
        <ele>1284.458984375</ele>
        <time>2017-12-23T11:02:20Z</time>
      </trkpt>
      <trkpt lat="45.35696" lon="5.90881">
        <ele>1281.458984375</ele>
        <time>2017-12-23T11:02:22Z</time>
      </trkpt>
      <trkpt lat="45.35695" lon="5.90888">
        <ele>1277.458984375</ele>
        <time>2017-12-23T11:02:24Z</time>
      </trkpt>
      <trkpt lat="45.35701" lon="5.90899">
        <ele>1273.458984375</ele>
        <time>2017-12-23T11:02:26Z</time>
      </trkpt>
      <trkpt lat="45.35698" lon="5.90916">
        <ele>1268.458984375</ele>
        <time>2017-12-23T11:02:28Z</time>
      </trkpt>
      <trkpt lat="45.35695" lon="5.90937">
        <ele>1267.458984375</ele>
        <time>2017-12-23T11:02:30Z</time>
      </trkpt>
      <trkpt lat="45.35691" lon="5.90959">
        <ele>1264.458984375</ele>
        <time>2017-12-23T11:02:32Z</time>
      </trkpt>
      <trkpt lat="45.35684" lon="5.9098">
        <ele>1262.458984375</ele>
        <time>2017-12-23T11:02:34Z</time>
      </trkpt>
      <trkpt lat="45.35684" lon="5.91004">
        <ele>1258.458984375</ele>
        <time>2017-12-23T11:02:36Z</time>
      </trkpt>
      <trkpt lat="45.35691" lon="5.91014">
        <ele>1255.4599609375</ele>
        <time>2017-12-23T11:02:37Z</time>
      </trkpt>
      <trkpt lat="45.35694" lon="5.91035">
        <ele>1249.4599609375</ele>
        <time>2017-12-23T11:02:39Z</time>
      </trkpt>
      <trkpt lat="45.357" lon="5.91058">
        <ele>1243.4599609375</ele>
        <time>2017-12-23T11:02:41Z</time>
      </trkpt>
      <trkpt lat="45.35703" lon="5.91084">
        <ele>1242.4599609375</ele>
        <time>2017-12-23T11:02:43Z</time>
      </trkpt>
      <trkpt lat="45.35709" lon="5.91111">
        <ele>1241.4599609375</ele>
        <time>2017-12-23T11:02:45Z</time>
      </trkpt>
      <trkpt lat="45.35716" lon="5.91141">
        <ele>1238.4599609375</ele>
        <time>2017-12-23T11:02:47Z</time>
      </trkpt>
      <trkpt lat="45.35724" lon="5.91168">
        <ele>1230.4599609375</ele>
        <time>2017-12-23T11:02:49Z</time>
      </trkpt>
      <trkpt lat="45.35728" lon="5.91201">
        <ele>1226.4599609375</ele>
        <time>2017-12-23T11:02:51Z</time>
      </trkpt>
      <trkpt lat="45.35732" lon="5.91231">
        <ele>1222.4599609375</ele>
        <time>2017-12-23T11:02:53Z</time>
      </trkpt>
      <trkpt lat="45.35728" lon="5.91254">
        <ele>1215.4599609375</ele>
        <time>2017-12-23T11:02:55Z</time>
      </trkpt>
      <trkpt lat="45.35723" lon="5.91277">
        <ele>1210.4599609375</ele>
        <time>2017-12-23T11:02:57Z</time>
      </trkpt>
      <trkpt lat="45.35721" lon="5.91291">
        <ele>1207.4599609375</ele>
        <time>2017-12-23T11:02:58Z</time>
      </trkpt>
      <trkpt lat="45.35715" lon="5.91318">
        <ele>1203.4599609375</ele>
        <time>2017-12-23T11:03:00Z</time>
      </trkpt>
      <trkpt lat="45.35714" lon="5.91354">
        <ele>1200.4599609375</ele>
        <time>2017-12-23T11:03:02Z</time>
      </trkpt>
      <trkpt lat="45.3571" lon="5.91379">
        <ele>1196.4599609375</ele>
        <time>2017-12-23T11:03:04Z</time>
      </trkpt>
      <trkpt lat="45.35709" lon="5.91407">
        <ele>1191.4599609375</ele>
        <time>2017-12-23T11:03:06Z</time>
      </trkpt>
      <trkpt lat="45.35702" lon="5.91431">
        <ele>1182.4599609375</ele>
        <time>2017-12-23T11:03:08Z</time>
      </trkpt>
      <trkpt lat="45.35701" lon="5.91456">
        <ele>1175.4599609375</ele>
        <time>2017-12-23T11:03:10Z</time>
      </trkpt>
      <trkpt lat="45.35698" lon="5.91477">
        <ele>1166.4599609375</ele>
        <time>2017-12-23T11:03:12Z</time>
      </trkpt>
      <trkpt lat="45.35694" lon="5.91502">
        <ele>1156.4599609375</ele>
        <time>2017-12-23T11:03:14Z</time>
      </trkpt>
      <trkpt lat="45.35683" lon="5.91524">
        <ele>1147.4599609375</ele>
        <time>2017-12-23T11:03:16Z</time>
      </trkpt>
      <trkpt lat="45.35673" lon="5.91548">
        <ele>1141.4599609375</ele>
        <time>2017-12-23T11:03:18Z</time>
      </trkpt>
      <trkpt lat="45.35665" lon="5.91574">
        <ele>1139.4599609375</ele>
        <time>2017-12-23T11:03:20Z</time>
      </trkpt>
      <trkpt lat="45.35657" lon="5.9158">
        <ele>1135.4599609375</ele>
        <time>2017-12-23T11:03:21Z</time>
      </trkpt>
      <trkpt lat="45.35654" lon="5.91592">
        <ele>1134.4599609375</ele>
        <time>2017-12-23T11:03:22Z</time>
      </trkpt>
      <trkpt lat="45.35651" lon="5.9162">
        <ele>1129.4599609375</ele>
        <time>2017-12-23T11:03:24Z</time>
      </trkpt>
      <trkpt lat="45.35659" lon="5.91632">
        <ele>1127.4599609375</ele>
        <time>2017-12-23T11:03:25Z</time>
      </trkpt>
      <trkpt lat="45.35678" lon="5.91647">
        <ele>1121.4599609375</ele>
        <time>2017-12-23T11:03:27Z</time>
      </trkpt>
      <trkpt lat="45.35695" lon="5.91666">
        <ele>1118.4599609375</ele>
        <time>2017-12-23T11:03:29Z</time>
      </trkpt>
      <trkpt lat="45.3571" lon="5.91678">
        <ele>1109.4599609375</ele>
        <time>2017-12-23T11:03:31Z</time>
      </trkpt>
      <trkpt lat="45.35724" lon="5.91692">
        <ele>1101.4599609375</ele>
        <time>2017-12-23T11:03:33Z</time>
      </trkpt>
      <trkpt lat="45.35733" lon="5.91728">
        <ele>1101.4610595703</ele>
        <time>2017-12-23T11:03:35Z</time>
      </trkpt>
      <trkpt lat="45.35725" lon="5.91763">
        <ele>1090.4610595703</ele>
        <time>2017-12-23T11:03:37Z</time>
      </trkpt>
      <trkpt lat="45.35712" lon="5.91792">
        <ele>1083.4610595703</ele>
        <time>2017-12-23T11:03:39Z</time>
      </trkpt>
      <trkpt lat="45.35707" lon="5.91801">
        <ele>1079.4610595703</ele>
        <time>2017-12-23T11:03:40Z</time>
      </trkpt>
      <trkpt lat="45.35695" lon="5.91812">
        <ele>1076.4610595703</ele>
        <time>2017-12-23T11:03:42Z</time>
      </trkpt>
      <trkpt lat="45.35685" lon="5.91823">
        <ele>1074.4610595703</ele>
        <time>2017-12-23T11:03:45Z</time>
      </trkpt>
      <trkpt lat="45.3568" lon="5.91825">
        <ele>1072.4610595703</ele>
        <time>2017-12-23T11:03:47Z</time>
      </trkpt>
      <trkpt lat="45.35676" lon="5.91827">
        <ele>1071.4610595703</ele>
        <time>2017-12-23T11:03:54Z</time>
      </trkpt>
      <trkpt lat="45.35531" lon="5.91866">
        <ele>1040.4599609375</ele>
        <time>2017-12-23T11:11:27Z</time>
      </trkpt>
      <trkpt lat="45.35521" lon="5.91862">
        <ele>1048.4599609375</ele>
        <time>2017-12-23T11:11:28Z</time>
      </trkpt>
    </trkseg>
  </trk>
</gpx>